AFR840 LFPG-TFFF
Flight info
| Callsign | AFR840 |
|---|---|
| Flight time | 8h 49m |
| Altitude | 33000 |
| Route | LGL UT176 ROLEN UZ15 DIDAK DCT AKEMO DCT RIVAK/M084F350 UN460 SIVIR DCT BERUX/N0481F350 DCT KOPAS/M084F340 DCT LENSI DCT 33N030W/M084F360 28N040W 23N050W/M084F380 20N055W DCT DRDGE/N0488F380 DCT UMAMU UMAMU2D |
| Aircraft | B77W/H-SDE1E2E3FGHIJ2J3J4J5M1RWXY/LB1D1 |
Departure
| Time | 2026-04-21 07:39 |
|---|---|
| Airport | Charles de Gaulle International Airport (LFPG) |
Arrival
| Time | 2026-04-21 16:28 |
|---|---|
| Airport | Martinique Aimé Césaire International Airport (TFFF) |
| Time | Latitude | Longitude | Altitude | Speed | Heading |
|---|---|---|---|---|---|
| 2026-04-21 07:03 | 49.00157 | 2.56229 | 359 ft | 0 kts | 343° |
| 2026-04-21 07:29 | 49.00143 | 2.56236 | 368 ft | 4 kts | 338° |
| 2026-04-21 07:29 | 49.00119 | 2.56255 | 365 ft | 4 kts | 320° |
| 2026-04-21 07:30 | 49.00102 | 2.56285 | 368 ft | 4 kts | 296° |
| 2026-04-21 07:30 | 49.00094 | 2.56323 | 367 ft | 4 kts | 273° |
| 2026-04-21 07:30 | 49.00095 | 2.56364 | 363 ft | 4 kts | 261° |
| 2026-04-21 07:30 | 49.00098 | 2.56399 | 366 ft | 1 kts | 269° |
| 2026-04-21 07:33 | 49.00098 | 2.56394 | 365 ft | 2 kts | 268° |
| 2026-04-21 07:34 | 49.00097 | 2.56344 | 366 ft | 7 kts | 268° |
| 2026-04-21 07:34 | 49.00094 | 2.56238 | 366 ft | 13 kts | 265° |
| 2026-04-21 07:34 | 49.00085 | 2.56098 | 365 ft | 13 kts | 265° |
| 2026-04-21 07:34 | 49.00078 | 2.55963 | 361 ft | 13 kts | 265° |
| 2026-04-21 07:35 | 49.00074 | 2.55829 | 365 ft | 13 kts | 269° |
| 2026-04-21 07:35 | 49.00072 | 2.55724 | 363 ft | 8 kts | 265° |
| 2026-04-21 07:35 | 49.00061 | 2.55642 | 365 ft | 8 kts | 241° |
| 2026-04-21 07:35 | 49.00028 | 2.55572 | 367 ft | 8 kts | 233° |
| 2026-04-21 07:36 | 48.99997 | 2.55498 | 366 ft | 9 kts | 243° |
| 2026-04-21 07:36 | 48.99979 | 2.55377 | 364 ft | 14 kts | 267° |
| 2026-04-21 07:36 | 48.99972 | 2.55225 | 363 ft | 14 kts | 266° |
| 2026-04-21 07:36 | 48.99963 | 2.55074 | 362 ft | 14 kts | 255° |
| 2026-04-21 07:37 | 48.99882 | 2.55018 | 367 ft | 15 kts | 163° |
| 2026-04-21 07:37 | 48.99785 | 2.55063 | 364 ft | 15 kts | 164° |
| 2026-04-21 07:37 | 48.99689 | 2.55109 | 366 ft | 15 kts | 152° |
| 2026-04-21 07:37 | 48.99630 | 2.55232 | 366 ft | 15 kts | 118° |
| 2026-04-21 07:38 | 48.99584 | 2.55370 | 364 ft | 13 kts | 107° |
| 2026-04-21 07:38 | 48.99582 | 2.55469 | 362 ft | 1 kts | 85° |
| 2026-04-21 07:38 | 48.99583 | 2.55483 | 365 ft | 8 kts | 85° |
| 2026-04-21 07:38 | 48.99598 | 2.55781 | 364 ft | 58 kts | 85° |
| 2026-04-21 07:39 | 48.99650 | 2.56738 | 360 ft | 122 kts | 85° |
| 2026-04-21 07:39 | 48.99733 | 2.58305 | 364 ft | 172 kts | 86° |
| 2026-04-21 07:39 | 48.99823 | 2.60226 | 665 ft | 184 kts | 83° |
| 2026-04-21 07:39 | 48.99936 | 2.62175 | 1170 ft | 187 kts | 83° |
| 2026-04-21 07:40 | 49.00031 | 2.64112 | 1913 ft | 178 kts | 87° |
| 2026-04-21 07:40 | 49.00103 | 2.66039 | 2250 ft | 191 kts | 82° |
| 2026-04-21 07:40 | 49.00237 | 2.68155 | 2453 ft | 210 kts | 84° |
| 2026-04-21 07:40 | 49.00375 | 2.70483 | 2741 ft | 231 kts | 84° |
| 2026-04-21 07:41 | 49.00511 | 2.72967 | 3276 ft | 239 kts | 84° |
| 2026-04-21 07:41 | 49.00644 | 2.75524 | 3934 ft | 245 kts | 84° |
| 2026-04-21 07:41 | 49.00743 | 2.78136 | 4615 ft | 248 kts | 90° |
| 2026-04-21 07:41 | 49.00536 | 2.80744 | 5227 ft | 255 kts | 98° |
| 2026-04-21 07:42 | 49.00210 | 2.83421 | 5857 ft | 260 kts | 98° |
| 2026-04-21 07:42 | 48.99847 | 2.86139 | 6414 ft | 265 kts | 97° |
| 2026-04-21 07:42 | 48.99554 | 2.88947 | 7014 ft | 270 kts | 96° |
| 2026-04-21 07:42 | 48.99266 | 2.91786 | 7666 ft | 273 kts | 96° |
| 2026-04-21 07:43 | 48.98968 | 2.94664 | 8272 ft | 278 kts | 96° |
| 2026-04-21 07:43 | 48.98539 | 2.97548 | 8780 ft | 284 kts | 112° |
| 2026-04-21 07:43 | 48.97290 | 2.99926 | 9267 ft | 296 kts | 144° |
| 2026-04-21 07:43 | 48.95402 | 3.01175 | 9858 ft | 301 kts | 171° |
| 2026-04-21 07:44 | 48.93313 | 3.01124 | 10403 ft | 304 kts | 195° |
| 2026-04-21 07:44 | 48.91370 | 2.99759 | 10599 ft | 316 kts | 221° |
| 2026-04-21 07:44 | 48.89865 | 2.97248 | 10780 ft | 330 kts | 240° |
| 2026-04-21 07:44 | 48.88864 | 2.94037 | 10936 ft | 345 kts | 255° |
| 2026-04-21 07:45 | 48.88252 | 2.90419 | 11216 ft | 361 kts | 261° |
| 2026-04-21 07:45 | 48.87739 | 2.86637 | 11845 ft | 369 kts | 261° |
| 2026-04-21 07:45 | 48.87215 | 2.82798 | 12704 ft | 372 kts | 261° |
| 2026-04-21 07:45 | 48.86660 | 2.78997 | 13697 ft | 373 kts | 261° |
| 2026-04-21 07:46 | 48.86067 | 2.75151 | 14586 ft | 375 kts | 260° |
| 2026-04-21 07:46 | 48.85447 | 2.71290 | 15435 ft | 377 kts | 260° |
| 2026-04-21 07:46 | 48.84811 | 2.67418 | 16292 ft | 379 kts | 260° |
| 2026-04-21 07:46 | 48.84164 | 2.63533 | 17141 ft | 381 kts | 260° |
| 2026-04-21 07:47 | 48.83507 | 2.59611 | 17917 ft | 385 kts | 259° |
| 2026-04-21 07:47 | 48.82842 | 2.55650 | 18637 ft | 389 kts | 259° |
| 2026-04-21 07:47 | 48.82172 | 2.51669 | 19334 ft | 390 kts | 260° |
| 2026-04-21 07:47 | 48.81498 | 2.47671 | 20083 ft | 391 kts | 260° |
| 2026-04-21 07:48 | 48.80820 | 2.43664 | 20800 ft | 393 kts | 260° |
| 2026-04-21 07:48 | 48.80160 | 2.39617 | 21482 ft | 394 kts | 263° |
| 2026-04-21 07:48 | 48.79921 | 2.35519 | 22090 ft | 390 kts | 274° |
| 2026-04-21 07:48 | 48.79960 | 2.31391 | 22716 ft | 393 kts | 275° |
| 2026-04-21 07:49 | 48.80019 | 2.27238 | 23388 ft | 395 kts | 275° |
| 2026-04-21 07:49 | 48.80069 | 2.23056 | 24019 ft | 396 kts | 275° |
| 2026-04-21 07:49 | 48.80106 | 2.18867 | 24539 ft | 399 kts | 274° |
| 2026-04-21 07:49 | 48.80128 | 2.14694 | 25039 ft | 401 kts | 274° |
| 2026-04-21 07:50 | 48.80141 | 2.10451 | 25538 ft | 404 kts | 274° |
| 2026-04-21 07:50 | 48.80146 | 2.06168 | 26012 ft | 407 kts | 274° |
| 2026-04-21 07:50 | 48.80147 | 2.01864 | 26474 ft | 410 kts | 274° |
| 2026-04-21 07:50 | 48.80144 | 1.97525 | 26931 ft | 413 kts | 274° |
| 2026-04-21 07:51 | 48.80138 | 1.93162 | 27388 ft | 415 kts | 274° |
| 2026-04-21 07:51 | 48.80131 | 1.88752 | 27833 ft | 418 kts | 274° |
| 2026-04-21 07:51 | 48.80122 | 1.84327 | 28274 ft | 420 kts | 274° |
| 2026-04-21 07:51 | 48.80111 | 1.79872 | 28667 ft | 423 kts | 274° |
| 2026-04-21 07:52 | 48.80100 | 1.75460 | 29043 ft | 425 kts | 274° |
| 2026-04-21 07:52 | 48.80086 | 1.70957 | 29403 ft | 428 kts | 274° |
| 2026-04-21 07:52 | 48.80070 | 1.66430 | 29747 ft | 430 kts | 274° |
| 2026-04-21 07:52 | 48.80052 | 1.61877 | 30067 ft | 433 kts | 274° |
| 2026-04-21 07:53 | 48.80033 | 1.57296 | 30349 ft | 435 kts | 273° |
| 2026-04-21 07:53 | 48.80011 | 1.52697 | 30612 ft | 436 kts | 273° |
| 2026-04-21 07:53 | 48.79988 | 1.48102 | 30961 ft | 436 kts | 273° |
| 2026-04-21 07:53 | 48.79962 | 1.43514 | 31341 ft | 435 kts | 273° |
| 2026-04-21 07:54 | 48.79934 | 1.38935 | 31687 ft | 434 kts | 273° |
| 2026-04-21 07:54 | 48.79906 | 1.34352 | 32013 ft | 434 kts | 273° |
| 2026-04-21 07:54 | 48.79876 | 1.29771 | 32300 ft | 434 kts | 272° |
| 2026-04-21 07:54 | 48.79844 | 1.25189 | 32527 ft | 435 kts | 272° |
| 2026-04-21 07:55 | 48.79810 | 1.20650 | 32832 ft | 435 kts | 272° |
| 2026-04-21 07:55 | 48.79774 | 1.16064 | 33132 ft | 435 kts | 272° |
| 2026-04-21 07:55 | 48.79698 | 1.06827 | 33208 ft | 438 kts | 272° |
| 2026-04-21 07:56 | 48.79612 | 0.97651 | 33200 ft | 433 kts | 272° |
| 2026-04-21 07:56 | 48.79521 | 0.88533 | 33216 ft | 432 kts | 272° |
| 2026-04-21 07:57 | 48.79424 | 0.79405 | 33214 ft | 432 kts | 272° |
| 2026-04-21 07:57 | 48.79319 | 0.70267 | 33210 ft | 434 kts | 272° |
| 2026-04-21 07:58 | 48.79208 | 0.61163 | 33207 ft | 435 kts | 272° |
| 2026-04-21 07:58 | 48.78110 | 0.52164 | 33211 ft | 445 kts | 250° |
| 2026-04-21 07:59 | 48.76530 | 0.48072 | 33201 ft | 455 kts | 237° |
| 2026-04-21 07:59 | 48.74465 | 0.44408 | 33211 ft | 459 kts | 234° |
| 2026-04-21 07:59 | 48.70207 | 0.37148 | 33196 ft | 461 kts | 234° |
| 2026-04-21 08:00 | 48.65999 | 0.29803 | 33205 ft | 463 kts | 235° |
| 2026-04-21 08:00 | 48.61810 | 0.22404 | 33193 ft | 463 kts | 235° |
| 2026-04-21 08:01 | 48.57550 | 0.15142 | 33189 ft | 467 kts | 230° |
| 2026-04-21 08:02 | 48.50082 | 0.05533 | 33184 ft | 470 kts | 226° |
| 2026-04-21 08:02 | 48.45058 | -0.00827 | 33174 ft | 470 kts | 226° |
| 2026-04-21 08:03 | 48.40078 | -0.07165 | 33171 ft | 468 kts | 225° |
| 2026-04-21 08:03 | 48.35143 | -0.13436 | 33171 ft | 467 kts | 225° |
| 2026-04-21 08:04 | 48.30179 | -0.19723 | 33173 ft | 466 kts | 226° |
| 2026-04-21 08:04 | 48.25727 | -0.26664 | 33175 ft | 457 kts | 237° |
| 2026-04-21 08:05 | 48.22211 | -0.34536 | 33140 ft | 452 kts | 244° |
| 2026-04-21 08:05 | 48.19066 | -0.42720 | 33157 ft | 453 kts | 244° |
| 2026-04-21 08:06 | 48.15914 | -0.50866 | 33156 ft | 455 kts | 244° |
| 2026-04-21 08:06 | 48.12712 | -0.59069 | 33130 ft | 457 kts | 244° |
| 2026-04-21 08:07 | 48.09492 | -0.67268 | 33124 ft | 457 kts | 244° |
| 2026-04-21 08:07 | 48.06256 | -0.75480 | 33144 ft | 457 kts | 244° |
| 2026-04-21 08:08 | 48.03020 | -0.83667 | 33148 ft | 457 kts | 244° |
| 2026-04-21 08:08 | 47.99777 | -0.91848 | 33123 ft | 457 kts | 243° |
| 2026-04-21 08:09 | 47.96547 | -0.99973 | 33140 ft | 458 kts | 243° |
| 2026-04-21 08:09 | 47.93290 | -1.08143 | 33144 ft | 458 kts | 243° |
| 2026-04-21 08:10 | 47.90020 | -1.16320 | 33147 ft | 459 kts | 243° |
| 2026-04-21 08:10 | 47.86745 | -1.24483 | 33133 ft | 459 kts | 243° |
| 2026-04-21 08:11 | 47.83460 | -1.32644 | 33131 ft | 459 kts | 242° |
| 2026-04-21 08:11 | 47.80169 | -1.40798 | 33131 ft | 459 kts | 242° |
| 2026-04-21 08:12 | 47.76877 | -1.48930 | 33116 ft | 459 kts | 242° |
| 2026-04-21 08:12 | 47.73577 | -1.57057 | 33127 ft | 459 kts | 242° |
| 2026-04-21 08:13 | 47.70270 | -1.65178 | 33115 ft | 459 kts | 242° |
| 2026-04-21 08:13 | 47.66980 | -1.73232 | 33111 ft | 459 kts | 242° |
| 2026-04-21 08:14 | 47.63662 | -1.81330 | 33113 ft | 459 kts | 242° |
| 2026-04-21 08:14 | 47.60901 | -1.88052 | 33105 ft | 459 kts | 242° |
| 2026-04-21 08:15 | 47.57016 | -1.97479 | 33082 ft | 458 kts | 242° |
| 2026-04-21 08:15 | 47.53683 | -2.05543 | 33095 ft | 458 kts | 241° |
| 2026-04-21 08:16 | 47.50912 | -2.12229 | 33078 ft | 458 kts | 242° |
| 2026-04-21 08:16 | 47.47038 | -2.21547 | 33080 ft | 457 kts | 241° |
| 2026-04-21 08:17 | 47.43701 | -2.29549 | 33078 ft | 457 kts | 241° |
| 2026-04-21 08:17 | 47.40928 | -2.36181 | 33080 ft | 456 kts | 241° |
| 2026-04-21 08:18 | 47.37587 | -2.44149 | 33081 ft | 456 kts | 241° |
| 2026-04-21 08:18 | 47.34309 | -2.52133 | 33068 ft | 450 kts | 243° |
| 2026-04-21 08:19 | 47.31005 | -2.60004 | 33080 ft | 452 kts | 241° |
| 2026-04-21 08:19 | 47.27613 | -2.67830 | 33083 ft | 453 kts | 241° |
| 2026-04-21 08:20 | 47.24258 | -2.75699 | 33079 ft | 454 kts | 242° |
| 2026-04-21 08:20 | 47.20909 | -2.83585 | 33073 ft | 455 kts | 242° |
| 2026-04-21 08:21 | 47.17547 | -2.91476 | 33061 ft | 455 kts | 241° |
| 2026-04-21 08:21 | 47.14409 | -2.99446 | 33064 ft | 452 kts | 248° |
| 2026-04-21 08:22 | 47.12206 | -3.08029 | 33065 ft | 448 kts | 256° |
| 2026-04-21 08:22 | 47.10461 | -3.16814 | 33064 ft | 448 kts | 256° |
| 2026-04-21 08:23 | 47.08692 | -3.25588 | 33062 ft | 448 kts | 255° |
| 2026-04-21 08:23 | 47.06900 | -3.34369 | 33052 ft | 449 kts | 255° |
| 2026-04-21 08:24 | 47.05098 | -3.43144 | 33064 ft | 449 kts | 255° |
| 2026-04-21 08:24 | 47.03284 | -3.51925 | 33055 ft | 450 kts | 255° |
| 2026-04-21 08:25 | 47.01472 | -3.60665 | 33053 ft | 451 kts | 255° |
| 2026-04-21 08:25 | 46.99643 | -3.69450 | 33036 ft | 451 kts | 255° |
| 2026-04-21 08:26 | 46.97885 | -3.78211 | 33057 ft | 448 kts | 254° |
| 2026-04-21 08:26 | 46.96124 | -3.86907 | 33040 ft | 446 kts | 253° |
| 2026-04-21 08:27 | 46.94206 | -3.95586 | 33035 ft | 450 kts | 253° |
| 2026-04-21 08:27 | 46.92301 | -4.04343 | 33035 ft | 452 kts | 254° |
| 2026-04-21 08:28 | 46.90430 | -4.13090 | 33033 ft | 453 kts | 253° |
| 2026-04-21 08:28 | 46.88552 | -4.21892 | 33021 ft | 453 kts | 253° |
| 2026-04-21 08:29 | 46.86670 | -4.30675 | 33032 ft | 452 kts | 253° |
| 2026-04-21 08:29 | 46.84784 | -4.39428 | 33037 ft | 451 kts | 253° |
| 2026-04-21 08:30 | 46.82907 | -4.48102 | 33016 ft | 450 kts | 253° |
| 2026-04-21 08:30 | 46.81015 | -4.56809 | 33033 ft | 450 kts | 253° |
| 2026-04-21 08:31 | 46.79115 | -4.65517 | 33027 ft | 450 kts | 253° |
| 2026-04-21 08:31 | 46.78161 | -4.69874 | 33234 ft | 450 kts | 253° |
| 2026-04-21 08:31 | 46.77209 | -4.74211 | 33608 ft | 449 kts | 253° |
| 2026-04-21 08:31 | 46.76255 | -4.78551 | 33918 ft | 448 kts | 253° |
| 2026-04-21 08:32 | 46.75303 | -4.82873 | 34274 ft | 445 kts | 253° |
| 2026-04-21 08:32 | 46.74355 | -4.87165 | 34539 ft | 445 kts | 253° |
| 2026-04-21 08:32 | 46.73431 | -4.91460 | 34769 ft | 444 kts | 252° |
| 2026-04-21 08:32 | 46.72503 | -4.95743 | 34923 ft | 440 kts | 255° |
| 2026-04-21 08:33 | 46.71578 | -5.00002 | 35015 ft | 442 kts | 251° |
| 2026-04-21 08:33 | 46.69563 | -5.08527 | 35003 ft | 447 kts | 252° |
| 2026-04-21 08:34 | 46.67658 | -5.17073 | 34993 ft | 446 kts | 252° |
| 2026-04-21 08:34 | 46.65758 | -5.25652 | 35007 ft | 444 kts | 252° |
| 2026-04-21 08:35 | 46.63923 | -5.34224 | 35007 ft | 441 kts | 252° |
| 2026-04-21 08:35 | 46.61939 | -5.42677 | 34990 ft | 442 kts | 251° |
| 2026-04-21 08:36 | 46.59982 | -5.51164 | 35011 ft | 443 kts | 251° |
| 2026-04-21 08:36 | 46.58053 | -5.59638 | 34983 ft | 444 kts | 251° |
| 2026-04-21 08:37 | 46.56108 | -5.68164 | 34985 ft | 443 kts | 249° |
| 2026-04-21 08:37 | 46.54130 | -5.76675 | 34984 ft | 444 kts | 251° |
| 2026-04-21 08:38 | 46.52176 | -5.85213 | 34979 ft | 446 kts | 251° |
| 2026-04-21 08:38 | 46.50200 | -5.93763 | 34978 ft | 446 kts | 250° |
| 2026-04-21 08:39 | 46.48225 | -6.02253 | 34963 ft | 447 kts | 250° |
| 2026-04-21 08:39 | 46.46280 | -6.10811 | 34953 ft | 447 kts | 250° |
| 2026-04-21 08:40 | 46.44261 | -6.19328 | 34963 ft | 446 kts | 249° |
| 2026-04-21 08:40 | 46.42232 | -6.27830 | 34957 ft | 446 kts | 249° |
| 2026-04-21 08:41 | 46.40213 | -6.36335 | 34955 ft | 446 kts | 249° |
| 2026-04-21 08:41 | 46.38195 | -6.44836 | 34950 ft | 446 kts | 248° |
| 2026-04-21 08:42 | 46.36233 | -6.53313 | 34952 ft | 443 kts | 249° |
| 2026-04-21 08:42 | 46.34211 | -6.61707 | 34947 ft | 445 kts | 248° |
| 2026-04-21 08:43 | 46.32148 | -6.70174 | 34945 ft | 446 kts | 249° |
| 2026-04-21 08:43 | 46.30089 | -6.78669 | 34940 ft | 448 kts | 249° |
| 2026-04-21 08:44 | 46.28029 | -6.87184 | 34940 ft | 448 kts | 248° |
| 2026-04-21 08:44 | 46.25968 | -6.95678 | 34925 ft | 447 kts | 248° |
| 2026-04-21 08:45 | 46.23918 | -7.04095 | 34913 ft | 446 kts | 248° |
| 2026-04-21 08:45 | 46.21854 | -7.12533 | 34917 ft | 445 kts | 248° |
| 2026-04-21 08:46 | 46.19788 | -7.20944 | 34919 ft | 444 kts | 247° |
| 2026-04-21 08:46 | 46.17718 | -7.29341 | 34910 ft | 444 kts | 247° |
| 2026-04-21 08:47 | 46.15638 | -7.37749 | 34900 ft | 445 kts | 247° |
| 2026-04-21 08:47 | 46.13549 | -7.46164 | 34899 ft | 446 kts | 247° |
| 2026-04-21 08:48 | 46.11465 | -7.54523 | 34878 ft | 446 kts | 247° |
| 2026-04-21 08:48 | 46.09355 | -7.62961 | 34894 ft | 447 kts | 247° |
| 2026-04-21 08:49 | 46.07235 | -7.71405 | 34877 ft | 448 kts | 247° |
| 2026-04-21 08:49 | 46.05107 | -7.79850 | 34863 ft | 448 kts | 246° |
| 2026-04-21 08:50 | 46.02978 | -7.88278 | 34863 ft | 448 kts | 246° |
| 2026-04-21 08:50 | 46.00990 | -7.96798 | 34858 ft | 451 kts | 253° |
| 2026-04-21 08:51 | 46.00021 | -8.05757 | 34854 ft | 456 kts | 262° |
| 2026-04-21 08:51 | 45.99962 | -8.14857 | 34860 ft | 458 kts | 266° |
| 2026-04-21 08:52 | 46.00026 | -8.24027 | 34846 ft | 458 kts | 266° |
| 2026-04-21 08:52 | 46.00055 | -8.33202 | 34845 ft | 458 kts | 265° |
| 2026-04-21 08:53 | 46.00057 | -8.42364 | 34831 ft | 458 kts | 265° |
| 2026-04-21 08:53 | 46.00050 | -8.51530 | 34837 ft | 457 kts | 265° |
| 2026-04-21 08:54 | 46.00037 | -8.60626 | 34830 ft | 457 kts | 265° |
| 2026-04-21 08:54 | 45.99942 | -8.69754 | 34829 ft | 453 kts | 259° |
| 2026-04-21 08:55 | 45.98299 | -8.78332 | 34841 ft | 441 kts | 243° |
| 2026-04-21 08:55 | 45.95409 | -8.86086 | 34838 ft | 440 kts | 235° |
| 2026-04-21 08:56 | 45.92135 | -8.93569 | 34835 ft | 444 kts | 234° |
| 2026-04-21 08:56 | 45.88840 | -9.01046 | 34826 ft | 447 kts | 234° |
| 2026-04-21 08:57 | 45.85539 | -9.08625 | 34825 ft | 448 kts | 235° |
| 2026-04-21 08:57 | 45.82292 | -9.16196 | 34809 ft | 443 kts | 237° |
| 2026-04-21 08:58 | 45.79263 | -9.23786 | 34834 ft | 437 kts | 231° |
| 2026-04-21 08:58 | 45.75751 | -9.30993 | 34826 ft | 446 kts | 233° |
| 2026-04-21 08:59 | 45.72429 | -9.38553 | 34817 ft | 449 kts | 235° |
| 2026-04-21 08:59 | 45.69170 | -9.46184 | 34813 ft | 449 kts | 234° |
| 2026-04-21 09:00 | 45.65982 | -9.53756 | 34807 ft | 441 kts | 231° |
| 2026-04-21 09:00 | 45.62609 | -9.61118 | 34823 ft | 444 kts | 233° |
| 2026-04-21 09:01 | 45.59327 | -9.68575 | 34808 ft | 447 kts | 233° |
| 2026-04-21 09:01 | 45.56022 | -9.76106 | 34790 ft | 448 kts | 233° |
| 2026-04-21 09:02 | 45.52699 | -9.83629 | 34802 ft | 448 kts | 232° |
| 2026-04-21 09:02 | 45.49385 | -9.91095 | 34781 ft | 447 kts | 232° |
| 2026-04-21 09:03 | 45.44386 | -10.02312 | 34765 ft | 446 kts | 232° |
| 2026-04-21 09:03 | 45.41056 | -10.09757 | 34766 ft | 445 kts | 232° |
| 2026-04-21 09:04 | 45.38292 | -10.15921 | 34759 ft | 445 kts | 232° |
| 2026-04-21 09:04 | 45.34954 | -10.23347 | 34752 ft | 445 kts | 232° |
| 2026-04-21 09:05 | 45.31071 | -10.31964 | 34739 ft | 445 kts | 232° |
| 2026-04-21 09:05 | 45.28287 | -10.38126 | 34736 ft | 446 kts | 232° |
| 2026-04-21 09:06 | 45.24928 | -10.45542 | 34727 ft | 446 kts | 232° |
| 2026-04-21 09:06 | 45.21563 | -10.52953 | 34724 ft | 447 kts | 231° |
| 2026-04-21 09:07 | 45.18187 | -10.60368 | 34713 ft | 448 kts | 231° |
| 2026-04-21 09:07 | 45.14804 | -10.67782 | 34705 ft | 448 kts | 231° |
| 2026-04-21 09:08 | 45.11416 | -10.75185 | 34700 ft | 448 kts | 231° |
| 2026-04-21 09:08 | 45.08024 | -10.82578 | 34703 ft | 448 kts | 231° |
| 2026-04-21 09:09 | 45.04642 | -10.89932 | 34690 ft | 449 kts | 231° |
| 2026-04-21 09:09 | 45.01230 | -10.97335 | 34687 ft | 449 kts | 231° |
| 2026-04-21 09:10 | 44.97775 | -11.04696 | 34685 ft | 449 kts | 230° |
| 2026-04-21 09:10 | 44.94233 | -11.11974 | 34674 ft | 449 kts | 229° |
| 2026-04-21 09:11 | 44.90675 | -11.19248 | 34671 ft | 451 kts | 230° |
| 2026-04-21 09:11 | 44.87107 | -11.26560 | 34654 ft | 452 kts | 230° |
| 2026-04-21 09:12 | 44.83541 | -11.33865 | 34642 ft | 452 kts | 230° |
| 2026-04-21 09:12 | 44.79990 | -11.41127 | 34640 ft | 453 kts | 230° |
| 2026-04-21 09:13 | 44.76410 | -11.48427 | 34650 ft | 453 kts | 230° |
| 2026-04-21 09:13 | 44.72819 | -11.55731 | 34641 ft | 453 kts | 229° |
| 2026-04-21 09:14 | 44.69231 | -11.63010 | 34628 ft | 453 kts | 229° |
| 2026-04-21 09:14 | 44.65638 | -11.70281 | 34629 ft | 452 kts | 229° |
| 2026-04-21 09:15 | 44.62048 | -11.77528 | 34615 ft | 452 kts | 229° |
| 2026-04-21 09:15 | 44.58475 | -11.84723 | 34604 ft | 451 kts | 229° |
| 2026-04-21 09:16 | 44.54880 | -11.91943 | 34599 ft | 451 kts | 229° |
| 2026-04-21 09:16 | 44.51281 | -11.99153 | 34589 ft | 451 kts | 229° |
| 2026-04-21 09:17 | 44.47679 | -12.06350 | 34588 ft | 451 kts | 229° |
| 2026-04-21 09:17 | 44.44070 | -12.13545 | 34579 ft | 452 kts | 229° |
| 2026-04-21 09:18 | 44.40469 | -12.20704 | 34570 ft | 452 kts | 229° |
| 2026-04-21 09:18 | 44.36838 | -12.27907 | 34564 ft | 453 kts | 229° |
| 2026-04-21 09:19 | 44.33204 | -12.35099 | 34550 ft | 453 kts | 229° |
| 2026-04-21 09:19 | 44.29561 | -12.42291 | 34590 ft | 453 kts | 228° |
| 2026-04-21 09:20 | 44.25909 | -12.49480 | 34550 ft | 454 kts | 228° |
| 2026-04-21 09:20 | 44.22277 | -12.56614 | 34540 ft | 454 kts | 228° |
| 2026-04-21 09:21 | 44.18617 | -12.63785 | 34533 ft | 453 kts | 228° |
| 2026-04-21 09:21 | 44.14958 | -12.70937 | 34532 ft | 453 kts | 228° |
| 2026-04-21 09:22 | 44.11291 | -12.78087 | 34552 ft | 453 kts | 228° |
| 2026-04-21 09:22 | 44.07611 | -12.85243 | 34526 ft | 455 kts | 228° |
| 2026-04-21 09:23 | 44.03923 | -12.92405 | 34508 ft | 456 kts | 228° |
| 2026-04-21 09:23 | 44.00243 | -12.99511 | 34508 ft | 455 kts | 226° |
| 2026-04-21 09:24 | 43.96168 | -13.06157 | 34518 ft | 451 kts | 222° |
| 2026-04-21 09:24 | 43.91998 | -13.12670 | 34496 ft | 451 kts | 222° |
| 2026-04-21 09:25 | 43.87826 | -13.19204 | 34503 ft | 453 kts | 222° |
| 2026-04-21 09:25 | 43.83655 | -13.25749 | 34492 ft | 453 kts | 222° |
| 2026-04-21 09:26 | 43.79483 | -13.32291 | 34480 ft | 453 kts | 222° |
| 2026-04-21 09:26 | 43.75316 | -13.38812 | 34469 ft | 452 kts | 221° |
| 2026-04-21 09:27 | 43.71149 | -13.45317 | 34470 ft | 451 kts | 221° |
| 2026-04-21 09:27 | 43.66986 | -13.51799 | 34473 ft | 451 kts | 221° |
| 2026-04-21 09:28 | 43.62841 | -13.58236 | 34462 ft | 452 kts | 221° |
| 2026-04-21 09:28 | 43.58656 | -13.64723 | 34462 ft | 453 kts | 221° |
| 2026-04-21 09:29 | 43.54455 | -13.71218 | 34436 ft | 453 kts | 221° |
| 2026-04-21 09:29 | 43.50252 | -13.77704 | 34454 ft | 454 kts | 221° |
| 2026-04-21 09:30 | 43.46041 | -13.84188 | 34441 ft | 454 kts | 221° |
| 2026-04-21 09:30 | 43.41813 | -13.90682 | 34444 ft | 456 kts | 221° |
| 2026-04-21 09:31 | 43.37567 | -13.97188 | 34423 ft | 457 kts | 221° |
| 2026-04-21 09:31 | 43.33339 | -14.03654 | 34430 ft | 458 kts | 221° |
| 2026-04-21 09:32 | 43.29070 | -14.10167 | 34413 ft | 459 kts | 221° |
| 2026-04-21 09:32 | 43.24793 | -14.16679 | 34412 ft | 459 kts | 221° |
| 2026-04-21 09:33 | 43.20505 | -14.23192 | 34435 ft | 459 kts | 221° |
| 2026-04-21 09:33 | 43.16244 | -14.29647 | 34409 ft | 460 kts | 221° |
| 2026-04-21 09:34 | 43.11947 | -14.36144 | 34401 ft | 460 kts | 221° |
| 2026-04-21 09:34 | 43.07637 | -14.42645 | 34396 ft | 461 kts | 221° |
| 2026-04-21 09:35 | 43.03321 | -14.49141 | 34402 ft | 461 kts | 221° |
| 2026-04-21 09:35 | 42.99003 | -14.55627 | 34396 ft | 461 kts | 221° |
| 2026-04-21 09:36 | 42.94669 | -14.62118 | 34406 ft | 464 kts | 221° |
| 2026-04-21 09:36 | 42.90301 | -14.68645 | 34411 ft | 467 kts | 221° |
| 2026-04-21 09:37 | 42.85905 | -14.75200 | 34426 ft | 469 kts | 222° |
| 2026-04-21 09:37 | 42.81520 | -14.81727 | 34419 ft | 470 kts | 222° |
| 2026-04-21 09:38 | 42.77093 | -14.88305 | 34435 ft | 471 kts | 222° |
| 2026-04-21 09:38 | 42.72663 | -14.94868 | 34469 ft | 470 kts | 223° |
| 2026-04-21 09:39 | 42.68543 | -15.01611 | 34450 ft | 456 kts | 218° |
| 2026-04-21 09:39 | 42.64114 | -15.07807 | 34469 ft | 456 kts | 218° |
| 2026-04-21 09:40 | 42.59589 | -15.13758 | 34459 ft | 456 kts | 224° |
| 2026-04-21 09:40 | 42.55341 | -15.20112 | 34476 ft | 458 kts | 223° |
| 2026-04-21 09:41 | 42.51056 | -15.26509 | 34462 ft | 456 kts | 222° |
| 2026-04-21 09:41 | 42.46667 | -15.32766 | 34477 ft | 462 kts | 222° |
| 2026-04-21 09:42 | 42.42280 | -15.39171 | 34494 ft | 466 kts | 224° |
| 2026-04-21 09:42 | 42.38094 | -15.45832 | 34500 ft | 465 kts | 221° |
| 2026-04-21 09:43 | 42.33639 | -15.52180 | 34501 ft | 465 kts | 220° |
| 2026-04-21 09:43 | 42.29321 | -15.58644 | 34505 ft | 462 kts | 223° |
| 2026-04-21 09:44 | 42.24897 | -15.64918 | 34547 ft | 462 kts | 221° |
| 2026-04-21 09:44 | 42.20450 | -15.71165 | 34512 ft | 464 kts | 225° |
| 2026-04-21 09:45 | 42.16180 | -15.77678 | 34542 ft | 459 kts | 225° |
| 2026-04-21 09:45 | 42.11645 | -15.83776 | 34551 ft | 462 kts | 220° |
| 2026-04-21 09:46 | 42.07159 | -15.90007 | 34557 ft | 464 kts | 225° |
| 2026-04-21 09:46 | 42.02707 | -15.96320 | 34566 ft | 466 kts | 223° |
| 2026-04-21 09:47 | 41.98294 | -16.02674 | 34558 ft | 467 kts | 227° |
| 2026-04-21 09:47 | 41.94014 | -16.09208 | 34564 ft | 463 kts | 226° |
| 2026-04-21 09:48 | 41.89620 | -16.15522 | 34587 ft | 461 kts | 225° |
| 2026-04-21 09:48 | 41.85232 | -16.21757 | 34583 ft | 459 kts | 224° |
| 2026-04-21 09:49 | 41.80740 | -16.27881 | 34588 ft | 461 kts | 225° |
| 2026-04-21 09:49 | 41.77064 | -16.33056 | 34584 ft | 463 kts | 224° |
| 2026-04-21 09:50 | 41.73314 | -16.38182 | 34590 ft | 465 kts | 226° |
| 2026-04-21 09:50 | 41.67515 | -16.46599 | 34581 ft | 459 kts | 226° |
| 2026-04-21 09:51 | 41.63044 | -16.52688 | 34614 ft | 459 kts | 224° |
| 2026-04-21 09:51 | 41.59355 | -16.57814 | 34614 ft | 462 kts | 225° |
| 2026-04-21 09:52 | 41.54877 | -16.64032 | 34620 ft | 464 kts | 225° |
| 2026-04-21 09:52 | 41.50465 | -16.70294 | 34631 ft | 460 kts | 227° |
| 2026-04-21 09:53 | 41.46006 | -16.76462 | 34612 ft | 460 kts | 227° |
| 2026-04-21 09:53 | 41.41633 | -16.82679 | 34626 ft | 459 kts | 226° |
| 2026-04-21 09:54 | 41.37146 | -16.88751 | 34635 ft | 459 kts | 225° |
| 2026-04-21 09:54 | 41.32605 | -16.94776 | 34643 ft | 463 kts | 226° |
| 2026-04-21 09:55 | 41.28320 | -17.01007 | 34651 ft | 460 kts | 227° |
| 2026-04-21 09:55 | 41.23859 | -17.07167 | 34653 ft | 465 kts | 226° |
| 2026-04-21 09:56 | 41.19297 | -17.13279 | 34654 ft | 466 kts | 228° |
| 2026-04-21 09:56 | 41.14999 | -17.19613 | 34661 ft | 459 kts | 225° |
| 2026-04-21 09:57 | 41.10506 | -17.25589 | 34676 ft | 458 kts | 225° |
| 2026-04-21 09:57 | 41.05817 | -17.31400 | 34664 ft | 465 kts | 225° |
| 2026-04-21 09:58 | 41.01283 | -17.37589 | 34681 ft | 469 kts | 228° |
| 2026-04-21 09:58 | 40.96851 | -17.43892 | 34674 ft | 472 kts | 229° |
| 2026-04-21 09:59 | 40.92307 | -17.50180 | 34686 ft | 473 kts | 228° |
| 2026-04-21 09:59 | 40.87728 | -17.56395 | 34682 ft | 471 kts | 228° |
| 2026-04-21 10:00 | 40.83157 | -17.62560 | 34686 ft | 468 kts | 228° |
| 2026-04-21 10:00 | 40.78614 | -17.68676 | 34683 ft | 464 kts | 228° |
| 2026-04-21 10:01 | 40.74101 | -17.74747 | 34690 ft | 462 kts | 229° |
| 2026-04-21 10:01 | 40.69631 | -17.80749 | 34697 ft | 460 kts | 229° |
| 2026-04-21 10:02 | 40.62896 | -17.89772 | 34703 ft | 460 kts | 229° |
| 2026-04-21 10:03 | 40.58403 | -17.95775 | 34696 ft | 461 kts | 229° |
| 2026-04-21 10:03 | 40.53878 | -18.01755 | 34670 ft | 461 kts | 230° |
| 2026-04-21 10:04 | 40.49392 | -18.07771 | 34714 ft | 461 kts | 230° |
| 2026-04-21 10:04 | 40.44887 | -18.13765 | 34715 ft | 461 kts | 230° |
| 2026-04-21 10:05 | 40.40373 | -18.19745 | 34718 ft | 461 kts | 230° |
| 2026-04-21 10:05 | 40.35888 | -18.25674 | 34722 ft | 460 kts | 230° |
| 2026-04-21 10:06 | 40.31372 | -18.31633 | 34722 ft | 460 kts | 230° |
| 2026-04-21 10:06 | 40.26909 | -18.37613 | 34641 ft | 452 kts | 236° |
| 2026-04-21 10:07 | 40.22555 | -18.43470 | 34731 ft | 452 kts | 229° |
| 2026-04-21 10:07 | 40.17993 | -18.49150 | 34733 ft | 452 kts | 231° |
| 2026-04-21 10:08 | 40.13544 | -18.54974 | 34736 ft | 454 kts | 232° |
| 2026-04-21 10:08 | 40.09120 | -18.60803 | 34734 ft | 455 kts | 232° |
| 2026-04-21 10:09 | 40.04641 | -18.66669 | 34729 ft | 456 kts | 232° |
| 2026-04-21 10:09 | 40.00501 | -18.72740 | 34721 ft | 427 kts | 248° |
| 2026-04-21 10:10 | 39.96771 | -18.78780 | 34733 ft | 449 kts | 223° |
| 2026-04-21 10:10 | 39.91504 | -18.83387 | 34745 ft | 454 kts | 229° |
| 2026-04-21 10:11 | 39.86968 | -18.89053 | 34742 ft | 452 kts | 234° |
| 2026-04-21 10:11 | 39.82633 | -18.94989 | 34739 ft | 452 kts | 234° |
| 2026-04-21 10:12 | 39.78261 | -19.00817 | 34735 ft | 453 kts | 233° |
| 2026-04-21 10:12 | 39.73962 | -19.06705 | 34672 ft | 430 kts | 245° |
| 2026-04-21 10:13 | 39.70089 | -19.12627 | 34733 ft | 444 kts | 231° |
| 2026-04-21 10:13 | 39.65554 | -19.17951 | 34741 ft | 442 kts | 230° |
| 2026-04-21 10:14 | 39.60676 | -19.23018 | 34753 ft | 450 kts | 232° |
| 2026-04-21 10:14 | 39.56207 | -19.28664 | 34748 ft | 447 kts | 236° |
| 2026-04-21 10:15 | 39.51918 | -19.34427 | 34744 ft | 447 kts | 236° |
| 2026-04-21 10:15 | 39.47529 | -19.40159 | 34699 ft | 447 kts | 235° |
| 2026-04-21 10:16 | 39.43138 | -19.45751 | 34727 ft | 440 kts | 235° |
| 2026-04-21 10:16 | 39.38756 | -19.51304 | 34738 ft | 442 kts | 235° |
| 2026-04-21 10:17 | 39.34359 | -19.56870 | 34746 ft | 443 kts | 234° |
| 2026-04-21 10:17 | 39.29935 | -19.62457 | 34752 ft | 445 kts | 234° |
| 2026-04-21 10:18 | 39.25504 | -19.68042 | 34752 ft | 446 kts | 234° |
| 2026-04-21 10:18 | 39.21063 | -19.73629 | 34755 ft | 446 kts | 234° |
| 2026-04-21 10:19 | 39.16647 | -19.79174 | 34751 ft | 445 kts | 234° |
| 2026-04-21 10:19 | 39.12214 | -19.84732 | 34746 ft | 444 kts | 234° |
| 2026-04-21 10:20 | 39.07778 | -19.90287 | 34751 ft | 444 kts | 234° |
| 2026-04-21 10:20 | 39.03343 | -19.95829 | 34751 ft | 445 kts | 234° |
| 2026-04-21 10:21 | 38.99183 | -20.01632 | 34747 ft | 435 kts | 242° |
| 2026-04-21 10:21 | 38.95853 | -20.07970 | 34756 ft | 429 kts | 246° |
| 2026-04-21 10:22 | 38.92562 | -20.14385 | 34755 ft | 430 kts | 246° |
| 2026-04-21 10:22 | 38.89247 | -20.20795 | 34764 ft | 431 kts | 246° |
| 2026-04-21 10:23 | 38.85918 | -20.27211 | 34754 ft | 432 kts | 245° |
| 2026-04-21 10:23 | 38.82605 | -20.33578 | 34761 ft | 431 kts | 245° |
| 2026-04-21 10:24 | 38.79248 | -20.40021 | 34770 ft | 431 kts | 245° |
| 2026-04-21 10:24 | 38.75911 | -20.46414 | 34752 ft | 432 kts | 245° |
| 2026-04-21 10:25 | 38.72596 | -20.52751 | 34754 ft | 430 kts | 245° |
| 2026-04-21 10:25 | 38.69261 | -20.59115 | 34766 ft | 430 kts | 245° |
| 2026-04-21 10:26 | 38.65928 | -20.65464 | 34766 ft | 429 kts | 245° |
| 2026-04-21 10:26 | 38.62586 | -20.71816 | 34770 ft | 430 kts | 245° |
| 2026-04-21 10:27 | 38.59243 | -20.78162 | 34766 ft | 431 kts | 245° |
| 2026-04-21 10:27 | 38.55893 | -20.84504 | 34760 ft | 430 kts | 245° |
| 2026-04-21 10:28 | 38.52562 | -20.90799 | 34767 ft | 430 kts | 245° |
| 2026-04-21 10:28 | 38.49206 | -20.97128 | 34777 ft | 430 kts | 245° |
| 2026-04-21 10:29 | 38.45850 | -21.03446 | 34778 ft | 430 kts | 245° |
| 2026-04-21 10:29 | 38.42489 | -21.09759 | 34784 ft | 430 kts | 245° |
| 2026-04-21 10:30 | 38.39123 | -21.16071 | 34768 ft | 430 kts | 245° |
| 2026-04-21 10:30 | 38.35761 | -21.22362 | 34777 ft | 429 kts | 244° |
| 2026-04-21 10:31 | 38.32419 | -21.28606 | 34791 ft | 429 kts | 244° |
| 2026-04-21 10:31 | 38.29051 | -21.34885 | 34794 ft | 429 kts | 244° |
| 2026-04-21 10:32 | 38.25680 | -21.41158 | 34797 ft | 429 kts | 244° |
| 2026-04-21 10:32 | 38.22306 | -21.47424 | 34759 ft | 429 kts | 244° |
| 2026-04-21 10:33 | 38.18934 | -21.53673 | 34788 ft | 428 kts | 244° |
| 2026-04-21 10:33 | 38.15553 | -21.59930 | 34808 ft | 429 kts | 244° |
| 2026-04-21 10:34 | 38.12185 | -21.66150 | 34806 ft | 430 kts | 244° |
| 2026-04-21 10:34 | 38.08792 | -21.72403 | 34806 ft | 430 kts | 244° |
| 2026-04-21 10:35 | 38.05391 | -21.78660 | 34804 ft | 430 kts | 244° |
| 2026-04-21 10:35 | 38.01986 | -21.84912 | 34814 ft | 430 kts | 243° |
| 2026-04-21 10:36 | 37.98599 | -21.91119 | 34816 ft | 432 kts | 243° |
| 2026-04-21 10:36 | 37.95175 | -21.97384 | 34816 ft | 433 kts | 243° |
| 2026-04-21 10:37 | 37.91742 | -22.03651 | 34816 ft | 433 kts | 243° |
| 2026-04-21 10:37 | 37.88297 | -22.09928 | 34799 ft | 433 kts | 243° |
| 2026-04-21 10:38 | 37.84856 | -22.16184 | 34814 ft | 433 kts | 243° |
| 2026-04-21 10:38 | 37.81406 | -22.22446 | 34823 ft | 434 kts | 243° |
| 2026-04-21 10:39 | 37.78536 | -22.27647 | 34824 ft | 434 kts | 243° |
| 2026-04-21 10:39 | 37.74505 | -22.34939 | 34833 ft | 434 kts | 243° |
| 2026-04-21 10:40 | 37.71622 | -22.40144 | 34827 ft | 434 kts | 243° |
| 2026-04-21 10:40 | 37.68156 | -22.46390 | 34823 ft | 434 kts | 243° |
| 2026-04-21 10:41 | 37.64690 | -22.52624 | 34833 ft | 434 kts | 242° |
| 2026-04-21 10:41 | 37.61214 | -22.58864 | 34846 ft | 434 kts | 242° |
| 2026-04-21 10:42 | 37.57764 | -22.65047 | 34842 ft | 434 kts | 242° |
| 2026-04-21 10:42 | 37.54285 | -22.71271 | 34811 ft | 434 kts | 242° |
| 2026-04-21 10:43 | 37.50806 | -22.77481 | 34837 ft | 434 kts | 242° |
| 2026-04-21 10:43 | 37.47327 | -22.83681 | 34840 ft | 434 kts | 242° |
| 2026-04-21 10:44 | 37.43839 | -22.89885 | 34848 ft | 434 kts | 242° |
| 2026-04-21 10:44 | 37.40343 | -22.96093 | 34847 ft | 435 kts | 242° |
| 2026-04-21 10:45 | 37.36840 | -23.02301 | 34852 ft | 435 kts | 242° |
| 2026-04-21 10:45 | 37.33352 | -23.08470 | 34858 ft | 435 kts | 242° |
| 2026-04-21 10:46 | 37.29841 | -23.14669 | 34854 ft | 435 kts | 242° |
| 2026-04-21 10:46 | 37.26325 | -23.20864 | 34861 ft | 435 kts | 242° |
| 2026-04-21 10:47 | 37.22806 | -23.27055 | 34865 ft | 435 kts | 242° |
| 2026-04-21 10:47 | 37.19282 | -23.33242 | 34840 ft | 435 kts | 242° |
| 2026-04-21 10:48 | 37.15756 | -23.39421 | 34859 ft | 435 kts | 242° |
| 2026-04-21 10:48 | 37.12224 | -23.45600 | 34859 ft | 436 kts | 242° |
| 2026-04-21 10:49 | 37.08714 | -23.51728 | 34876 ft | 436 kts | 242° |
| 2026-04-21 10:49 | 37.05172 | -23.57903 | 34886 ft | 436 kts | 242° |
| 2026-04-21 10:50 | 37.01628 | -23.64069 | 34884 ft | 436 kts | 242° |
| 2026-04-21 10:50 | 36.98082 | -23.70225 | 34887 ft | 436 kts | 242° |
| 2026-04-21 10:51 | 36.94551 | -23.76346 | 34874 ft | 436 kts | 241° |
| 2026-04-21 10:51 | 36.90997 | -23.82495 | 34891 ft | 436 kts | 241° |
| 2026-04-21 10:52 | 36.87442 | -23.88634 | 34898 ft | 436 kts | 241° |
| 2026-04-21 10:52 | 36.83883 | -23.94770 | 34887 ft | 435 kts | 241° |
| 2026-04-21 10:53 | 36.80328 | -24.00887 | 34905 ft | 435 kts | 241° |
| 2026-04-21 10:53 | 36.76789 | -24.06968 | 34878 ft | 436 kts | 241° |
| 2026-04-21 10:54 | 36.73222 | -24.13084 | 34903 ft | 436 kts | 241° |
| 2026-04-21 10:54 | 36.69647 | -24.19201 | 34913 ft | 436 kts | 241° |
| 2026-04-21 10:55 | 36.66065 | -24.25322 | 34912 ft | 437 kts | 241° |
| 2026-04-21 10:55 | 36.62507 | -24.31390 | 34923 ft | 437 kts | 241° |
| 2026-04-21 10:56 | 36.58918 | -24.37499 | 34921 ft | 437 kts | 241° |
| 2026-04-21 10:56 | 36.55326 | -24.43602 | 34911 ft | 437 kts | 241° |
| 2026-04-21 10:57 | 36.51730 | -24.49701 | 34922 ft | 436 kts | 241° |
| 2026-04-21 10:57 | 36.48138 | -24.55783 | 34936 ft | 436 kts | 241° |
| 2026-04-21 10:58 | 36.44537 | -24.61870 | 34935 ft | 437 kts | 240° |
| 2026-04-21 10:58 | 36.40928 | -24.67961 | 34939 ft | 438 kts | 240° |
| 2026-04-21 10:59 | 36.37308 | -24.74056 | 34929 ft | 438 kts | 240° |
| 2026-04-21 10:59 | 36.33703 | -24.80116 | 34951 ft | 439 kts | 240° |
| 2026-04-21 11:00 | 36.30070 | -24.86213 | 34952 ft | 439 kts | 240° |
| 2026-04-21 11:00 | 36.26433 | -24.92308 | 34956 ft | 440 kts | 240° |
| 2026-04-21 11:01 | 36.22788 | -24.98401 | 34956 ft | 440 kts | 240° |
| 2026-04-21 11:01 | 36.19167 | -25.04444 | 34949 ft | 439 kts | 240° |
| 2026-04-21 11:02 | 36.13698 | -25.13552 | 34936 ft | 439 kts | 240° |
| 2026-04-21 11:02 | 36.10050 | -25.19614 | 34954 ft | 439 kts | 240° |
| 2026-04-21 11:03 | 36.06392 | -25.25684 | 34964 ft | 440 kts | 240° |
| 2026-04-21 11:03 | 36.02726 | -25.31756 | 34986 ft | 441 kts | 240° |
| 2026-04-21 11:04 | 35.99052 | -25.37829 | 34985 ft | 441 kts | 240° |
| 2026-04-21 11:04 | 35.95372 | -25.43901 | 34969 ft | 442 kts | 240° |
| 2026-04-21 11:05 | 35.91689 | -25.49966 | 34975 ft | 442 kts | 240° |
| 2026-04-21 11:05 | 35.88029 | -25.55985 | 34981 ft | 441 kts | 240° |
| 2026-04-21 11:06 | 35.84342 | -25.62035 | 34998 ft | 441 kts | 240° |
| 2026-04-21 11:06 | 35.80656 | -25.68076 | 34992 ft | 440 kts | 239° |
| 2026-04-21 11:07 | 35.76967 | -25.74111 | 34973 ft | 440 kts | 239° |
| 2026-04-21 11:07 | 35.73278 | -25.80135 | 34993 ft | 441 kts | 239° |
| 2026-04-21 11:08 | 35.69584 | -25.86158 | 35002 ft | 441 kts | 239° |
| 2026-04-21 11:08 | 35.65877 | -25.92190 | 35003 ft | 442 kts | 239° |
| 2026-04-21 11:09 | 35.62163 | -25.98223 | 34998 ft | 442 kts | 239° |
| 2026-04-21 11:09 | 35.58462 | -26.04223 | 35005 ft | 443 kts | 239° |
| 2026-04-21 11:10 | 35.54741 | -26.10246 | 35005 ft | 443 kts | 239° |
| 2026-04-21 11:10 | 35.51017 | -26.16264 | 35011 ft | 442 kts | 239° |
| 2026-04-21 11:11 | 35.47286 | -26.22283 | 35019 ft | 442 kts | 239° |
| 2026-04-21 11:11 | 35.43557 | -26.28287 | 35007 ft | 442 kts | 239° |
| 2026-04-21 11:12 | 35.39847 | -26.34251 | 35016 ft | 441 kts | 239° |
| 2026-04-21 11:12 | 35.36118 | -26.40235 | 35028 ft | 441 kts | 239° |
| 2026-04-21 11:13 | 35.32388 | -26.46212 | 35030 ft | 441 kts | 239° |
| 2026-04-21 11:13 | 35.28651 | -26.52189 | 35033 ft | 441 kts | 239° |
| 2026-04-21 11:14 | 35.24934 | -26.58124 | 35015 ft | 441 kts | 238° |
| 2026-04-21 11:14 | 35.21192 | -26.64089 | 35037 ft | 441 kts | 238° |
| 2026-04-21 11:15 | 35.17449 | -26.70045 | 35042 ft | 441 kts | 238° |
| 2026-04-21 11:15 | 35.13701 | -26.75999 | 35046 ft | 442 kts | 238° |
| 2026-04-21 11:16 | 35.09951 | -26.81945 | 35047 ft | 442 kts | 238° |
| 2026-04-21 11:16 | 35.06196 | -26.87890 | 35035 ft | 442 kts | 238° |
| 2026-04-21 11:17 | 35.02465 | -26.93788 | 35041 ft | 442 kts | 238° |
| 2026-04-21 11:17 | 34.98704 | -26.99721 | 35057 ft | 442 kts | 238° |
| 2026-04-21 11:18 | 34.94928 | -27.05670 | 35056 ft | 443 kts | 238° |
| 2026-04-21 11:18 | 34.91145 | -27.11619 | 35060 ft | 444 kts | 238° |
| 2026-04-21 11:19 | 34.87356 | -27.17567 | 35046 ft | 444 kts | 238° |
| 2026-04-21 11:19 | 34.83559 | -27.23517 | 35078 ft | 444 kts | 238° |
| 2026-04-21 11:20 | 34.79762 | -27.29457 | 35060 ft | 444 kts | 238° |
| 2026-04-21 11:20 | 34.75993 | -27.35344 | 35060 ft | 444 kts | 238° |
| 2026-04-21 11:21 | 34.72193 | -27.41270 | 35064 ft | 444 kts | 238° |
| 2026-04-21 11:21 | 34.68398 | -27.47177 | 35040 ft | 444 kts | 237° |
| 2026-04-21 11:22 | 34.64599 | -27.53082 | 35066 ft | 443 kts | 237° |
| 2026-04-21 11:22 | 34.60795 | -27.58985 | 35076 ft | 444 kts | 237° |
| 2026-04-21 11:23 | 34.56975 | -27.64902 | 35081 ft | 445 kts | 237° |
| 2026-04-21 11:23 | 34.53175 | -27.70779 | 35083 ft | 446 kts | 237° |
| 2026-04-21 11:24 | 34.49344 | -27.76694 | 35084 ft | 446 kts | 237° |
| 2026-04-21 11:24 | 34.45506 | -27.82609 | 35083 ft | 446 kts | 237° |
| 2026-04-21 11:25 | 34.41670 | -27.88510 | 35089 ft | 446 kts | 237° |
| 2026-04-21 11:25 | 34.37834 | -27.94403 | 35090 ft | 445 kts | 237° |
| 2026-04-21 11:26 | 34.33994 | -28.00293 | 35092 ft | 445 kts | 237° |
| 2026-04-21 11:26 | 34.30154 | -28.06172 | 35084 ft | 445 kts | 237° |
| 2026-04-21 11:27 | 34.26339 | -28.12005 | 35092 ft | 445 kts | 236° |
| 2026-04-21 11:27 | 34.23113 | -28.16928 | 35111 ft | 445 kts | 236° |
| 2026-04-21 11:28 | 34.19260 | -28.22800 | 35099 ft | 446 kts | 236° |
| 2026-04-21 11:28 | 34.15423 | -28.28638 | 35094 ft | 447 kts | 236° |
| 2026-04-21 11:29 | 34.11548 | -28.34525 | 35095 ft | 447 kts | 236° |
| 2026-04-21 11:29 | 34.07671 | -28.40404 | 35113 ft | 447 kts | 236° |
| 2026-04-21 11:30 | 34.03797 | -28.46270 | 35119 ft | 447 kts | 236° |
| 2026-04-21 11:30 | 33.99919 | -28.52131 | 35107 ft | 447 kts | 236° |
| 2026-04-21 11:31 | 33.96041 | -28.57984 | 35112 ft | 447 kts | 236° |
| 2026-04-21 11:31 | 33.92183 | -28.63796 | 35115 ft | 446 kts | 236° |
| 2026-04-21 11:32 | 33.88296 | -28.69644 | 35107 ft | 447 kts | 236° |
| 2026-04-21 11:32 | 33.84403 | -28.75490 | 35120 ft | 447 kts | 236° |
| 2026-04-21 11:33 | 33.80502 | -28.81341 | 35122 ft | 448 kts | 236° |
| 2026-04-21 11:33 | 33.76627 | -28.87141 | 35123 ft | 448 kts | 236° |
| 2026-04-21 11:34 | 33.72723 | -28.92976 | 35125 ft | 448 kts | 236° |
| 2026-04-21 11:34 | 33.68811 | -28.98813 | 35117 ft | 448 kts | 235° |
| 2026-04-21 11:35 | 33.64889 | -29.04655 | 35133 ft | 448 kts | 235° |
| 2026-04-21 11:35 | 33.60977 | -29.10474 | 35131 ft | 448 kts | 235° |
| 2026-04-21 11:36 | 33.57081 | -29.16260 | 35131 ft | 448 kts | 235° |
| 2026-04-21 11:36 | 33.53160 | -29.22074 | 35135 ft | 448 kts | 235° |
| 2026-04-21 11:37 | 33.49236 | -29.27882 | 35135 ft | 448 kts | 234° |
| 2026-04-21 11:37 | 33.45308 | -29.33688 | 35143 ft | 449 kts | 234° |
| 2026-04-21 11:38 | 33.41366 | -29.39504 | 35146 ft | 449 kts | 234° |
| 2026-04-21 11:38 | 33.37426 | -29.45308 | 35147 ft | 449 kts | 234° |
| 2026-04-21 11:39 | 33.33483 | -29.51109 | 35146 ft | 449 kts | 234° |
| 2026-04-21 11:39 | 33.29561 | -29.56869 | 35141 ft | 449 kts | 234° |
| 2026-04-21 11:40 | 33.25611 | -29.62659 | 35151 ft | 449 kts | 234° |
| 2026-04-21 11:40 | 33.21656 | -29.68451 | 35154 ft | 449 kts | 234° |
| 2026-04-21 11:41 | 33.17702 | -29.74231 | 35147 ft | 449 kts | 234° |
| 2026-04-21 11:41 | 33.13743 | -29.80008 | 35157 ft | 449 kts | 234° |
| 2026-04-21 11:42 | 33.09778 | -29.85786 | 35153 ft | 450 kts | 234° |
| 2026-04-21 11:42 | 33.05829 | -29.91534 | 35161 ft | 450 kts | 234° |
| 2026-04-21 11:43 | 33.01856 | -29.97310 | 35166 ft | 451 kts | 234° |
| 2026-04-21 11:43 | 32.98396 | -30.03485 | 35163 ft | 446 kts | 245° |
| 2026-04-21 11:44 | 32.95563 | -30.10064 | 35172 ft | 446 kts | 245° |
| 2026-04-21 11:44 | 32.92704 | -30.16634 | 35171 ft | 447 kts | 245° |
| 2026-04-21 11:45 | 32.89828 | -30.23196 | 35175 ft | 447 kts | 244° |
| 2026-04-21 11:45 | 32.86936 | -30.29767 | 35174 ft | 448 kts | 244° |
| 2026-04-21 11:46 | 32.84059 | -30.36292 | 35175 ft | 448 kts | 244° |
| 2026-04-21 11:46 | 32.81161 | -30.42852 | 35171 ft | 448 kts | 244° |
| 2026-04-21 11:47 | 32.78258 | -30.49413 | 35178 ft | 448 kts | 244° |
| 2026-04-21 11:47 | 32.75357 | -30.55957 | 35179 ft | 448 kts | 244° |
| 2026-04-21 11:48 | 32.72448 | -30.62508 | 35180 ft | 448 kts | 244° |
| 2026-04-21 11:48 | 32.69557 | -30.69006 | 35175 ft | 448 kts | 244° |
| 2026-04-21 11:49 | 32.66640 | -30.75551 | 35187 ft | 448 kts | 244° |
| 2026-04-21 11:49 | 32.63720 | -30.82090 | 35185 ft | 449 kts | 244° |
| 2026-04-21 11:50 | 32.60793 | -30.88635 | 35185 ft | 449 kts | 244° |
| 2026-04-21 11:50 | 32.57858 | -30.95185 | 35184 ft | 449 kts | 244° |
| 2026-04-21 11:51 | 32.54922 | -31.01724 | 35185 ft | 450 kts | 244° |
| 2026-04-21 11:51 | 32.51979 | -31.08267 | 35189 ft | 450 kts | 244° |
| 2026-04-21 11:52 | 32.49032 | -31.14809 | 35189 ft | 450 kts | 244° |
| 2026-04-21 11:52 | 32.46087 | -31.21334 | 35190 ft | 450 kts | 244° |
| 2026-04-21 11:53 | 32.43129 | -31.27874 | 35191 ft | 450 kts | 244° |
| 2026-04-21 11:53 | 32.40167 | -31.34413 | 35193 ft | 450 kts | 243° |
| 2026-04-21 11:54 | 32.37224 | -31.40897 | 35194 ft | 450 kts | 243° |
| 2026-04-21 11:54 | 32.34260 | -31.47418 | 35193 ft | 450 kts | 243° |
| 2026-04-21 11:55 | 32.31289 | -31.53942 | 35192 ft | 450 kts | 243° |
| 2026-04-21 11:55 | 32.28314 | -31.60461 | 35209 ft | 450 kts | 243° |
| 2026-04-21 11:56 | 32.25332 | -31.66985 | 35196 ft | 451 kts | 243° |
| 2026-04-21 11:56 | 32.22358 | -31.73482 | 35197 ft | 451 kts | 243° |
| 2026-04-21 11:57 | 32.19366 | -31.80003 | 35194 ft | 451 kts | 243° |
| 2026-04-21 11:57 | 32.16365 | -31.86536 | 35210 ft | 452 kts | 243° |
| 2026-04-21 11:58 | 32.13378 | -31.93023 | 35193 ft | 453 kts | 243° |
| 2026-04-21 11:58 | 32.10362 | -31.99564 | 35203 ft | 453 kts | 243° |
| 2026-04-21 11:59 | 32.07343 | -32.06099 | 35207 ft | 454 kts | 243° |
| 2026-04-21 11:59 | 32.04318 | -32.12636 | 35204 ft | 454 kts | 243° |
| 2026-04-21 12:00 | 32.01283 | -32.19183 | 35211 ft | 455 kts | 243° |
| 2026-04-21 12:00 | 31.98267 | -32.25677 | 35210 ft | 455 kts | 243° |
| 2026-04-21 12:01 | 31.95226 | -32.32214 | 35207 ft | 455 kts | 243° |
| 2026-04-21 12:01 | 31.92183 | -32.38743 | 35201 ft | 455 kts | 243° |
| 2026-04-21 12:02 | 31.87602 | -32.48551 | 35203 ft | 455 kts | 243° |
| 2026-04-21 12:03 | 31.84549 | -32.55073 | 35214 ft | 455 kts | 243° |
| 2026-04-21 12:03 | 31.81509 | -32.61555 | 35212 ft | 455 kts | 243° |
| 2026-04-21 12:04 | 31.78444 | -32.68080 | 35209 ft | 455 kts | 243° |
| 2026-04-21 12:04 | 31.75376 | -32.74600 | 35213 ft | 456 kts | 243° |
| 2026-04-21 12:05 | 31.72302 | -32.81122 | 35216 ft | 456 kts | 243° |
| 2026-04-21 12:05 | 31.69223 | -32.87641 | 35210 ft | 456 kts | 243° |
| 2026-04-21 12:06 | 31.66141 | -32.94159 | 35209 ft | 457 kts | 242° |
| 2026-04-21 12:06 | 31.63049 | -33.00683 | 35214 ft | 457 kts | 242° |
| 2026-04-21 12:07 | 31.59955 | -33.07200 | 35216 ft | 457 kts | 242° |
| 2026-04-21 12:07 | 31.56854 | -33.13722 | 35219 ft | 458 kts | 242° |
| 2026-04-21 12:08 | 31.53770 | -33.20197 | 35209 ft | 458 kts | 242° |
| 2026-04-21 12:08 | 31.50661 | -33.26713 | 35207 ft | 458 kts | 242° |
| 2026-04-21 12:09 | 31.47549 | -33.33223 | 35214 ft | 457 kts | 242° |
| 2026-04-21 12:09 | 31.44437 | -33.39724 | 35218 ft | 457 kts | 242° |
| 2026-04-21 12:10 | 31.41327 | -33.46209 | 35214 ft | 457 kts | 242° |
| 2026-04-21 12:10 | 31.38214 | -33.52688 | 35217 ft | 456 kts | 242° |
| 2026-04-21 12:11 | 31.35116 | -33.59126 | 35221 ft | 456 kts | 242° |
| 2026-04-21 12:11 | 31.31999 | -33.65590 | 35219 ft | 456 kts | 242° |
| 2026-04-21 12:12 | 31.28876 | -33.72059 | 35212 ft | 456 kts | 242° |
| 2026-04-21 12:12 | 31.25751 | -33.78519 | 35219 ft | 456 kts | 242° |
| 2026-04-21 12:13 | 31.22622 | -33.84976 | 35218 ft | 457 kts | 242° |
| 2026-04-21 12:13 | 31.19488 | -33.91434 | 35221 ft | 457 kts | 242° |
| 2026-04-21 12:14 | 31.16371 | -33.97845 | 35223 ft | 457 kts | 242° |
| 2026-04-21 12:14 | 31.14795 | -34.01083 | 35379 ft | 459 kts | 242° |
| 2026-04-21 12:14 | 31.13221 | -34.04313 | 35733 ft | 456 kts | 242° |
| 2026-04-21 12:14 | 31.11655 | -34.07524 | 36147 ft | 453 kts | 242° |
| 2026-04-21 12:15 | 31.10100 | -34.10708 | 36544 ft | 450 kts | 242° |
| 2026-04-21 12:15 | 31.09076 | -34.12804 | 36782 ft | 448 kts | 242° |
| 2026-04-21 12:15 | 31.07534 | -34.15960 | 37086 ft | 447 kts | 242° |
| 2026-04-21 12:16 | 31.04441 | -34.22284 | 37203 ft | 450 kts | 242° |
| 2026-04-21 12:16 | 31.01340 | -34.28611 | 37212 ft | 448 kts | 242° |
| 2026-04-21 12:17 | 30.98254 | -34.34898 | 37212 ft | 445 kts | 242° |
| 2026-04-21 12:17 | 30.95179 | -34.41152 | 37220 ft | 444 kts | 242° |
| 2026-04-21 12:18 | 30.92103 | -34.47398 | 37223 ft | 444 kts | 242° |
| 2026-04-21 12:18 | 30.89025 | -34.53637 | 37226 ft | 445 kts | 242° |
| 2026-04-21 12:19 | 30.85940 | -34.59882 | 37224 ft | 446 kts | 242° |
| 2026-04-21 12:19 | 30.82838 | -34.66150 | 37224 ft | 447 kts | 242° |
| 2026-04-21 12:20 | 30.79749 | -34.72381 | 37220 ft | 448 kts | 242° |
| 2026-04-21 12:20 | 30.76634 | -34.78656 | 37222 ft | 448 kts | 242° |
| 2026-04-21 12:21 | 30.73511 | -34.84935 | 37225 ft | 448 kts | 241° |
| 2026-04-21 12:21 | 30.70386 | -34.91208 | 37226 ft | 449 kts | 241° |
| 2026-04-21 12:22 | 30.67253 | -34.97489 | 37223 ft | 448 kts | 241° |
| 2026-04-21 12:22 | 30.64125 | -35.03748 | 37221 ft | 448 kts | 241° |
| 2026-04-21 12:23 | 30.60990 | -35.10011 | 37223 ft | 448 kts | 241° |
| 2026-04-21 12:23 | 30.57858 | -35.16258 | 37222 ft | 447 kts | 241° |
| 2026-04-21 12:24 | 30.54747 | -35.22454 | 37223 ft | 447 kts | 241° |
| 2026-04-21 12:24 | 30.51612 | -35.28688 | 37222 ft | 447 kts | 241° |
| 2026-04-21 12:25 | 30.48477 | -35.34911 | 37224 ft | 447 kts | 241° |
| 2026-04-21 12:25 | 30.45338 | -35.41133 | 37223 ft | 447 kts | 241° |
| 2026-04-21 12:26 | 30.42213 | -35.47320 | 37221 ft | 447 kts | 241° |
| 2026-04-21 12:26 | 30.39068 | -35.53533 | 37224 ft | 447 kts | 241° |
| 2026-04-21 12:27 | 30.35923 | -35.59737 | 37219 ft | 447 kts | 241° |
| 2026-04-21 12:27 | 30.32776 | -35.65935 | 37220 ft | 447 kts | 241° |
| 2026-04-21 12:28 | 30.29626 | -35.72130 | 37224 ft | 445 kts | 241° |
| 2026-04-21 12:28 | 30.26482 | -35.78304 | 37218 ft | 444 kts | 241° |
| 2026-04-21 12:29 | 30.23343 | -35.84457 | 37224 ft | 444 kts | 241° |
| 2026-04-21 12:29 | 30.20228 | -35.90555 | 37221 ft | 443 kts | 241° |
| 2026-04-21 12:30 | 30.17083 | -35.96701 | 37224 ft | 443 kts | 241° |
| 2026-04-21 12:30 | 30.13945 | -36.02824 | 37224 ft | 442 kts | 241° |
| 2026-04-21 12:31 | 30.10805 | -36.08943 | 37226 ft | 443 kts | 241° |
| 2026-04-21 12:31 | 30.07661 | -36.15059 | 37227 ft | 443 kts | 241° |
| 2026-04-21 12:32 | 30.04512 | -36.21176 | 37228 ft | 443 kts | 241° |
| 2026-04-21 12:32 | 30.01356 | -36.27297 | 37220 ft | 444 kts | 241° |
| 2026-04-21 12:33 | 29.98219 | -36.33372 | 37221 ft | 444 kts | 241° |
| 2026-04-21 12:33 | 29.95054 | -36.39491 | 37225 ft | 444 kts | 241° |
| 2026-04-21 12:34 | 29.91888 | -36.45602 | 37222 ft | 444 kts | 241° |
| 2026-04-21 12:34 | 29.88719 | -36.51711 | 37223 ft | 444 kts | 241° |
| 2026-04-21 12:35 | 29.85542 | -36.57825 | 37225 ft | 444 kts | 241° |
| 2026-04-21 12:35 | 29.82388 | -36.63887 | 37224 ft | 444 kts | 241° |
| 2026-04-21 12:36 | 29.79211 | -36.69983 | 37227 ft | 443 kts | 241° |
| 2026-04-21 12:36 | 29.76032 | -36.76074 | 37215 ft | 443 kts | 240° |
| 2026-04-21 12:37 | 29.72849 | -36.82162 | 37224 ft | 443 kts | 240° |
| 2026-04-21 12:37 | 29.69672 | -36.88232 | 37231 ft | 443 kts | 241° |
| 2026-04-21 12:38 | 29.66511 | -36.94261 | 37228 ft | 442 kts | 241° |
| 2026-04-21 12:38 | 29.63330 | -37.00318 | 37221 ft | 442 kts | 240° |
| 2026-04-21 12:39 | 29.60153 | -37.06360 | 37219 ft | 441 kts | 240° |
| 2026-04-21 12:39 | 29.56976 | -37.12392 | 37225 ft | 441 kts | 240° |
| 2026-04-21 12:40 | 29.53797 | -37.18419 | 37215 ft | 441 kts | 240° |
| 2026-04-21 12:40 | 29.50607 | -37.24458 | 37223 ft | 441 kts | 240° |
| 2026-04-21 12:41 | 29.47438 | -37.30449 | 37228 ft | 441 kts | 240° |
| 2026-04-21 12:41 | 29.44246 | -37.36473 | 37215 ft | 442 kts | 240° |
| 2026-04-21 12:42 | 29.41047 | -37.42503 | 37206 ft | 442 kts | 240° |
| 2026-04-21 12:42 | 29.37847 | -37.48526 | 37218 ft | 442 kts | 240° |
| 2026-04-21 12:43 | 29.34644 | -37.54544 | 37216 ft | 442 kts | 240° |
| 2026-04-21 12:43 | 29.31457 | -37.60525 | 37211 ft | 443 kts | 240° |
| 2026-04-21 12:44 | 29.28245 | -37.66543 | 37214 ft | 443 kts | 240° |
| 2026-04-21 12:44 | 29.25030 | -37.72558 | 37217 ft | 443 kts | 240° |
| 2026-04-21 12:45 | 29.21812 | -37.78571 | 37212 ft | 443 kts | 240° |
| 2026-04-21 12:45 | 29.18588 | -37.84584 | 37216 ft | 443 kts | 240° |
| 2026-04-21 12:46 | 29.15364 | -37.90590 | 37217 ft | 443 kts | 240° |
| 2026-04-21 12:46 | 29.12140 | -37.96587 | 37194 ft | 443 kts | 240° |
| 2026-04-21 12:47 | 29.08910 | -38.02586 | 37205 ft | 442 kts | 240° |
| 2026-04-21 12:47 | 29.05704 | -38.08531 | 37211 ft | 442 kts | 240° |
| 2026-04-21 12:48 | 29.02475 | -38.14512 | 37217 ft | 442 kts | 240° |
| 2026-04-21 12:48 | 28.99241 | -38.20492 | 37216 ft | 442 kts | 240° |
| 2026-04-21 12:49 | 28.96004 | -38.26470 | 37214 ft | 442 kts | 240° |
| 2026-04-21 12:49 | 28.92785 | -38.32405 | 37214 ft | 442 kts | 240° |
| 2026-04-21 12:50 | 28.89546 | -38.38370 | 37210 ft | 442 kts | 240° |
| 2026-04-21 12:50 | 28.86304 | -38.44331 | 37202 ft | 442 kts | 240° |
| 2026-04-21 12:51 | 28.83055 | -38.50296 | 37210 ft | 442 kts | 240° |
| 2026-04-21 12:51 | 28.79801 | -38.56262 | 37203 ft | 442 kts | 240° |
| 2026-04-21 12:52 | 28.76546 | -38.62223 | 37203 ft | 442 kts | 240° |
| 2026-04-21 12:52 | 28.73309 | -38.68139 | 37196 ft | 443 kts | 240° |
| 2026-04-21 12:53 | 28.70044 | -38.74100 | 37211 ft | 442 kts | 240° |
| 2026-04-21 12:53 | 28.66779 | -38.80053 | 37207 ft | 442 kts | 239° |
| 2026-04-21 12:54 | 28.63534 | -38.85961 | 37200 ft | 442 kts | 239° |
| 2026-04-21 12:54 | 28.60265 | -38.91904 | 37204 ft | 442 kts | 239° |
| 2026-04-21 12:55 | 28.56994 | -38.97841 | 37203 ft | 442 kts | 239° |
| 2026-04-21 12:55 | 28.53720 | -39.03775 | 37202 ft | 442 kts | 239° |
| 2026-04-21 12:56 | 28.50450 | -39.09696 | 37203 ft | 442 kts | 239° |
| 2026-04-21 12:56 | 28.47179 | -39.15608 | 37198 ft | 441 kts | 239° |
| 2026-04-21 12:57 | 28.43914 | -39.21502 | 37202 ft | 441 kts | 239° |
| 2026-04-21 12:57 | 28.40644 | -39.27396 | 37199 ft | 440 kts | 239° |
| 2026-04-21 12:58 | 28.37399 | -39.33238 | 37199 ft | 440 kts | 239° |
| 2026-04-21 12:58 | 28.34128 | -39.39119 | 37198 ft | 440 kts | 239° |
| 2026-04-21 12:59 | 28.30859 | -39.44988 | 37200 ft | 440 kts | 239° |
| 2026-04-21 12:59 | 28.27585 | -39.50856 | 37198 ft | 440 kts | 239° |
| 2026-04-21 13:00 | 28.24308 | -39.56724 | 37200 ft | 440 kts | 239° |
| 2026-04-21 13:00 | 28.21028 | -39.62589 | 37202 ft | 440 kts | 239° |
| 2026-04-21 13:01 | 28.17739 | -39.68460 | 37199 ft | 441 kts | 239° |
| 2026-04-21 13:01 | 28.14468 | -39.74293 | 37195 ft | 441 kts | 239° |
| 2026-04-21 13:02 | 28.11169 | -39.80167 | 37193 ft | 441 kts | 239° |
| 2026-04-21 13:02 | 28.06220 | -39.88964 | 37193 ft | 441 kts | 239° |
| 2026-04-21 13:03 | 28.03472 | -39.93844 | 37193 ft | 441 kts | 239° |
| 2026-04-21 13:03 | 28.00178 | -39.99716 | 37193 ft | 441 kts | 241° |
| 2026-04-21 13:04 | 27.97345 | -40.05854 | 37193 ft | 439 kts | 245° |
| 2026-04-21 13:04 | 27.94610 | -40.12039 | 37187 ft | 439 kts | 244° |
| 2026-04-21 13:05 | 27.91882 | -40.18173 | 37188 ft | 439 kts | 244° |
| 2026-04-21 13:05 | 27.89125 | -40.24342 | 37186 ft | 439 kts | 244° |
| 2026-04-21 13:06 | 27.86363 | -40.30505 | 37173 ft | 439 kts | 244° |
| 2026-04-21 13:06 | 27.83606 | -40.36647 | 37181 ft | 438 kts | 244° |
| 2026-04-21 13:07 | 27.80850 | -40.42776 | 37179 ft | 437 kts | 244° |
| 2026-04-21 13:07 | 27.78097 | -40.48891 | 37181 ft | 437 kts | 244° |
| 2026-04-21 13:08 | 27.75342 | -40.55004 | 37184 ft | 436 kts | 244° |
| 2026-04-21 13:08 | 27.72587 | -40.61105 | 37185 ft | 436 kts | 244° |
| 2026-04-21 13:09 | 27.69826 | -40.67212 | 37183 ft | 436 kts | 244° |
| 2026-04-21 13:09 | 27.67065 | -40.73308 | 37181 ft | 436 kts | 244° |
| 2026-04-21 13:10 | 27.64318 | -40.79367 | 37183 ft | 437 kts | 244° |
| 2026-04-21 13:10 | 27.61543 | -40.85476 | 37181 ft | 437 kts | 244° |
| 2026-04-21 13:11 | 27.58757 | -40.91602 | 37188 ft | 438 kts | 244° |
| 2026-04-21 13:11 | 27.55988 | -40.97679 | 37184 ft | 438 kts | 244° |
| 2026-04-21 13:12 | 27.53203 | -41.03786 | 37180 ft | 438 kts | 244° |
| 2026-04-21 13:12 | 27.50413 | -41.09892 | 37179 ft | 438 kts | 244° |
| 2026-04-21 13:13 | 27.47620 | -41.15997 | 37182 ft | 438 kts | 244° |
| 2026-04-21 13:13 | 27.44824 | -41.22099 | 37178 ft | 438 kts | 244° |
| 2026-04-21 13:14 | 27.42027 | -41.28196 | 37181 ft | 438 kts | 244° |
| 2026-04-21 13:14 | 27.39225 | -41.34292 | 37182 ft | 438 kts | 244° |
| 2026-04-21 13:15 | 27.36442 | -41.40341 | 37180 ft | 438 kts | 244° |
| 2026-04-21 13:15 | 27.33620 | -41.46464 | 37183 ft | 438 kts | 244° |
| 2026-04-21 13:16 | 27.30831 | -41.52507 | 37178 ft | 438 kts | 244° |
| 2026-04-21 13:16 | 27.28014 | -41.58602 | 37176 ft | 438 kts | 244° |
| 2026-04-21 13:17 | 27.25202 | -41.64677 | 37177 ft | 438 kts | 244° |
| 2026-04-21 13:17 | 27.22385 | -41.70754 | 37175 ft | 438 kts | 244° |
| 2026-04-21 13:18 | 27.19563 | -41.76835 | 37182 ft | 439 kts | 244° |
| 2026-04-21 13:18 | 27.16737 | -41.82915 | 37178 ft | 439 kts | 244° |
| 2026-04-21 13:19 | 27.13925 | -41.88956 | 37178 ft | 440 kts | 244° |
| 2026-04-21 13:19 | 27.11085 | -41.95047 | 37177 ft | 440 kts | 244° |
| 2026-04-21 13:20 | 27.08242 | -42.01136 | 37171 ft | 440 kts | 244° |
| 2026-04-21 13:20 | 27.05394 | -42.07228 | 37178 ft | 441 kts | 244° |
| 2026-04-21 13:21 | 27.02542 | -42.13320 | 37174 ft | 441 kts | 244° |
| 2026-04-21 13:21 | 26.99702 | -42.19377 | 37174 ft | 442 kts | 244° |
| 2026-04-21 13:22 | 26.96840 | -42.25473 | 37192 ft | 442 kts | 244° |
| 2026-04-21 13:22 | 26.93971 | -42.31575 | 37175 ft | 442 kts | 244° |
| 2026-04-21 13:23 | 26.91096 | -42.37681 | 37170 ft | 443 kts | 244° |
| 2026-04-21 13:23 | 26.88218 | -42.43785 | 37176 ft | 443 kts | 244° |
| 2026-04-21 13:24 | 26.85337 | -42.49886 | 37167 ft | 443 kts | 244° |
| 2026-04-21 13:24 | 26.82466 | -42.55958 | 37172 ft | 442 kts | 244° |
| 2026-04-21 13:25 | 26.79586 | -42.62039 | 37167 ft | 442 kts | 244° |
| 2026-04-21 13:25 | 26.76706 | -42.68112 | 37167 ft | 441 kts | 244° |
| 2026-04-21 13:26 | 26.73821 | -42.74188 | 37170 ft | 441 kts | 244° |
| 2026-04-21 13:26 | 26.70958 | -42.80208 | 37170 ft | 441 kts | 244° |
| 2026-04-21 13:27 | 26.68074 | -42.86266 | 37166 ft | 441 kts | 244° |
| 2026-04-21 13:27 | 26.65180 | -42.92334 | 37173 ft | 441 kts | 244° |
| 2026-04-21 13:28 | 26.62289 | -42.98388 | 37170 ft | 442 kts | 244° |
| 2026-04-21 13:28 | 26.59409 | -43.04411 | 37170 ft | 442 kts | 244° |
| 2026-04-21 13:29 | 26.56502 | -43.10481 | 37169 ft | 443 kts | 244° |
| 2026-04-21 13:29 | 26.53592 | -43.16551 | 37168 ft | 443 kts | 244° |
| 2026-04-21 13:30 | 26.50675 | -43.22626 | 37173 ft | 444 kts | 244° |
| 2026-04-21 13:30 | 26.47755 | -43.28699 | 37172 ft | 444 kts | 244° |
| 2026-04-21 13:31 | 26.44827 | -43.34779 | 37169 ft | 444 kts | 244° |
| 2026-04-21 13:31 | 26.41919 | -43.40810 | 37166 ft | 444 kts | 244° |
| 2026-04-21 13:32 | 26.38988 | -43.46880 | 37161 ft | 444 kts | 244° |
| 2026-04-21 13:32 | 26.36057 | -43.52942 | 37164 ft | 444 kts | 244° |
| 2026-04-21 13:33 | 26.33125 | -43.58997 | 37166 ft | 443 kts | 244° |
| 2026-04-21 13:33 | 26.30191 | -43.65048 | 37164 ft | 443 kts | 244° |
| 2026-04-21 13:34 | 26.27251 | -43.71104 | 37167 ft | 444 kts | 244° |
| 2026-04-21 13:34 | 26.24311 | -43.77150 | 37164 ft | 444 kts | 244° |
| 2026-04-21 13:35 | 26.21386 | -43.83159 | 37158 ft | 444 kts | 244° |
| 2026-04-21 13:35 | 26.18440 | -43.89202 | 37161 ft | 444 kts | 244° |
| 2026-04-21 13:36 | 26.15484 | -43.95258 | 37161 ft | 445 kts | 244° |
| 2026-04-21 13:36 | 26.12527 | -44.01305 | 37161 ft | 445 kts | 244° |
| 2026-04-21 13:37 | 26.09581 | -44.07324 | 37159 ft | 445 kts | 244° |
| 2026-04-21 13:37 | 26.06618 | -44.13370 | 37161 ft | 445 kts | 244° |
| 2026-04-21 13:38 | 26.03648 | -44.19420 | 37161 ft | 445 kts | 244° |
| 2026-04-21 13:38 | 26.00676 | -44.25468 | 37152 ft | 445 kts | 244° |
| 2026-04-21 13:39 | 25.97698 | -44.31518 | 37160 ft | 445 kts | 244° |
| 2026-04-21 13:39 | 25.94740 | -44.37520 | 37163 ft | 446 kts | 244° |
| 2026-04-21 13:40 | 25.91758 | -44.43562 | 37155 ft | 446 kts | 244° |
| 2026-04-21 13:40 | 25.88772 | -44.49606 | 37162 ft | 446 kts | 244° |
| 2026-04-21 13:41 | 25.85783 | -44.55645 | 37158 ft | 446 kts | 244° |
| 2026-04-21 13:41 | 25.82795 | -44.61676 | 37134 ft | 446 kts | 244° |
| 2026-04-21 13:42 | 25.79812 | -44.67687 | 37151 ft | 443 kts | 244° |
| 2026-04-21 13:42 | 25.76837 | -44.73675 | 37154 ft | 442 kts | 244° |
| 2026-04-21 13:43 | 25.73892 | -44.79596 | 37157 ft | 440 kts | 244° |
| 2026-04-21 13:43 | 25.70933 | -44.85537 | 37160 ft | 439 kts | 244° |
| 2026-04-21 13:44 | 25.67975 | -44.91467 | 37159 ft | 439 kts | 244° |
| 2026-04-21 13:44 | 25.65017 | -44.97391 | 37156 ft | 439 kts | 244° |
| 2026-04-21 13:45 | 25.62053 | -45.03320 | 37156 ft | 440 kts | 244° |
| 2026-04-21 13:45 | 25.59085 | -45.09247 | 37156 ft | 440 kts | 244° |
| 2026-04-21 13:46 | 25.56127 | -45.15147 | 37154 ft | 441 kts | 244° |
| 2026-04-21 13:46 | 25.53139 | -45.21099 | 37138 ft | 441 kts | 244° |
| 2026-04-21 13:47 | 25.50151 | -45.27043 | 37153 ft | 441 kts | 244° |
| 2026-04-21 13:47 | 25.47184 | -45.32938 | 37158 ft | 441 kts | 244° |
| 2026-04-21 13:48 | 25.44198 | -45.38863 | 37160 ft | 441 kts | 244° |
| 2026-04-21 13:48 | 25.41205 | -45.44794 | 37156 ft | 441 kts | 244° |
| 2026-04-21 13:49 | 25.38209 | -45.50722 | 37146 ft | 440 kts | 244° |
| 2026-04-21 13:49 | 25.35222 | -45.56626 | 37150 ft | 440 kts | 244° |
| 2026-04-21 13:50 | 25.32232 | -45.62530 | 37156 ft | 440 kts | 244° |
| 2026-04-21 13:50 | 25.29235 | -45.68438 | 37153 ft | 440 kts | 244° |
| 2026-04-21 13:51 | 25.26256 | -45.74304 | 37158 ft | 441 kts | 244° |
| 2026-04-21 13:51 | 25.23253 | -45.80210 | 37157 ft | 441 kts | 244° |
| 2026-04-21 13:52 | 25.20240 | -45.86128 | 37154 ft | 442 kts | 244° |
| 2026-04-21 13:52 | 25.17223 | -45.92046 | 37153 ft | 443 kts | 244° |
| 2026-04-21 13:53 | 25.14199 | -45.97968 | 37141 ft | 442 kts | 244° |
| 2026-04-21 13:53 | 25.11686 | -46.02885 | 37143 ft | 442 kts | 244° |
| 2026-04-21 13:54 | 25.08666 | -46.08788 | 37152 ft | 441 kts | 244° |
| 2026-04-21 13:54 | 25.05643 | -46.14687 | 37148 ft | 441 kts | 244° |
| 2026-04-21 13:55 | 25.02620 | -46.20582 | 37153 ft | 441 kts | 244° |
| 2026-04-21 13:55 | 24.99615 | -46.26431 | 37149 ft | 441 kts | 244° |
| 2026-04-21 13:56 | 24.96590 | -46.32314 | 37145 ft | 440 kts | 244° |
| 2026-04-21 13:56 | 24.93565 | -46.38190 | 37153 ft | 440 kts | 244° |
| 2026-04-21 13:57 | 24.90537 | -46.44065 | 37165 ft | 441 kts | 244° |
| 2026-04-21 13:57 | 24.87525 | -46.49899 | 37151 ft | 440 kts | 244° |
| 2026-04-21 13:58 | 24.84495 | -46.55762 | 37151 ft | 440 kts | 244° |
| 2026-04-21 13:58 | 24.81466 | -46.61615 | 37153 ft | 440 kts | 244° |
| 2026-04-21 13:59 | 24.78431 | -46.67473 | 37153 ft | 440 kts | 244° |
| 2026-04-21 13:59 | 24.75391 | -46.73334 | 37123 ft | 440 kts | 244° |
| 2026-04-21 14:00 | 24.72377 | -46.79134 | 37149 ft | 439 kts | 245° |
| 2026-04-21 14:00 | 24.69350 | -46.84956 | 37155 ft | 438 kts | 245° |
| 2026-04-21 14:01 | 24.66321 | -46.90774 | 37149 ft | 438 kts | 245° |
| 2026-04-21 14:01 | 24.63296 | -46.96577 | 37150 ft | 438 kts | 244° |
| 2026-04-21 14:02 | 24.60264 | -47.02387 | 37144 ft | 437 kts | 245° |
| 2026-04-21 14:03 | 24.55721 | -47.11078 | 37148 ft | 437 kts | 245° |
| 2026-04-21 14:03 | 24.52706 | -47.16837 | 37149 ft | 437 kts | 245° |
| 2026-04-21 14:04 | 24.49671 | -47.22628 | 37145 ft | 438 kts | 245° |
| 2026-04-21 14:04 | 24.46629 | -47.28424 | 37140 ft | 437 kts | 245° |
| 2026-04-21 14:05 | 24.43590 | -47.34207 | 37148 ft | 437 kts | 245° |
| 2026-04-21 14:05 | 24.40552 | -47.39982 | 37152 ft | 437 kts | 245° |
| 2026-04-21 14:06 | 24.37511 | -47.45755 | 37151 ft | 437 kts | 245° |
| 2026-04-21 14:06 | 24.34487 | -47.51492 | 37150 ft | 437 kts | 245° |
| 2026-04-21 14:07 | 24.31442 | -47.57259 | 37139 ft | 436 kts | 245° |
| 2026-04-21 14:07 | 24.28389 | -47.63035 | 37144 ft | 436 kts | 245° |
| 2026-04-21 14:08 | 24.25347 | -47.68782 | 37145 ft | 436 kts | 245° |
| 2026-04-21 14:08 | 24.22320 | -47.74496 | 37141 ft | 436 kts | 245° |
| 2026-04-21 14:09 | 24.19271 | -47.80244 | 37127 ft | 436 kts | 245° |
| 2026-04-21 14:09 | 24.16225 | -47.85979 | 37153 ft | 435 kts | 245° |
| 2026-04-21 14:10 | 24.13175 | -47.91714 | 37150 ft | 435 kts | 245° |
| 2026-04-21 14:10 | 24.10123 | -47.97448 | 37134 ft | 436 kts | 245° |
| 2026-04-21 14:11 | 24.07072 | -48.03174 | 37132 ft | 436 kts | 245° |
| 2026-04-21 14:11 | 24.04014 | -48.08904 | 37130 ft | 436 kts | 244° |
| 2026-04-21 14:12 | 24.00973 | -48.14595 | 37143 ft | 436 kts | 244° |
| 2026-04-21 14:12 | 23.97912 | -48.20319 | 37142 ft | 435 kts | 244° |
| 2026-04-21 14:13 | 23.94846 | -48.26044 | 37144 ft | 436 kts | 244° |
| 2026-04-21 14:13 | 23.91779 | -48.31767 | 37136 ft | 436 kts | 244° |
| 2026-04-21 14:14 | 23.88724 | -48.37458 | 37144 ft | 436 kts | 244° |
| 2026-04-21 14:14 | 23.85649 | -48.43181 | 37146 ft | 437 kts | 244° |
| 2026-04-21 14:15 | 23.82561 | -48.48921 | 37133 ft | 437 kts | 244° |
| 2026-04-21 14:15 | 23.79474 | -48.54651 | 37141 ft | 438 kts | 244° |
| 2026-04-21 14:16 | 23.76380 | -48.60390 | 37135 ft | 438 kts | 244° |
| 2026-04-21 14:16 | 23.73309 | -48.66078 | 37129 ft | 438 kts | 244° |
| 2026-04-21 14:17 | 23.70215 | -48.71802 | 37136 ft | 437 kts | 244° |
| 2026-04-21 14:17 | 23.67115 | -48.77530 | 37141 ft | 437 kts | 244° |
| 2026-04-21 14:18 | 23.64017 | -48.83250 | 37139 ft | 437 kts | 244° |
| 2026-04-21 14:18 | 23.60940 | -48.88925 | 37139 ft | 437 kts | 244° |
| 2026-04-21 14:19 | 23.57848 | -48.94620 | 37129 ft | 435 kts | 244° |
| 2026-04-21 14:19 | 23.54760 | -49.00299 | 37135 ft | 434 kts | 244° |
| 2026-04-21 14:20 | 23.51697 | -49.05926 | 37136 ft | 434 kts | 244° |
| 2026-04-21 14:20 | 23.48614 | -49.11587 | 37133 ft | 434 kts | 244° |
| 2026-04-21 14:21 | 23.45527 | -49.17247 | 37141 ft | 434 kts | 244° |
| 2026-04-21 14:21 | 23.42444 | -49.22894 | 37131 ft | 433 kts | 244° |
| 2026-04-21 14:22 | 23.39362 | -49.28531 | 37137 ft | 433 kts | 244° |
| 2026-04-21 14:22 | 23.36280 | -49.34162 | 37134 ft | 433 kts | 244° |
| 2026-04-21 14:23 | 23.33194 | -49.39797 | 37135 ft | 434 kts | 244° |
| 2026-04-21 14:23 | 23.30098 | -49.45441 | 37137 ft | 434 kts | 244° |
| 2026-04-21 14:24 | 23.27025 | -49.51040 | 37131 ft | 433 kts | 243° |
| 2026-04-21 14:24 | 23.23931 | -49.56666 | 37134 ft | 433 kts | 243° |
| 2026-04-21 14:25 | 23.20835 | -49.62291 | 37137 ft | 433 kts | 243° |
| 2026-04-21 14:25 | 23.17739 | -49.67911 | 37133 ft | 433 kts | 243° |
| 2026-04-21 14:26 | 23.14644 | -49.73524 | 37134 ft | 433 kts | 243° |
| 2026-04-21 14:26 | 23.11560 | -49.79110 | 37126 ft | 433 kts | 243° |
| 2026-04-21 14:27 | 23.08461 | -49.84717 | 37134 ft | 433 kts | 243° |
| 2026-04-21 14:27 | 23.05351 | -49.90339 | 37134 ft | 433 kts | 243° |
| 2026-04-21 14:28 | 23.02246 | -49.95946 | 37131 ft | 433 kts | 243° |
| 2026-04-21 14:28 | 22.99129 | -50.01553 | 37132 ft | 434 kts | 243° |
| 2026-04-21 14:29 | 22.95964 | -50.07086 | 37123 ft | 434 kts | 242° |
| 2026-04-21 14:29 | 22.92764 | -50.12632 | 37127 ft | 433 kts | 242° |
| 2026-04-21 14:30 | 22.89570 | -50.18176 | 37133 ft | 433 kts | 242° |
| 2026-04-21 14:30 | 22.86377 | -50.23727 | 37132 ft | 433 kts | 242° |
| 2026-04-21 14:31 | 22.83179 | -50.29284 | 37135 ft | 434 kts | 242° |
| 2026-04-21 14:31 | 22.79999 | -50.34805 | 37121 ft | 434 kts | 242° |
| 2026-04-21 14:32 | 22.76800 | -50.40352 | 37127 ft | 434 kts | 242° |
| 2026-04-21 14:32 | 22.73598 | -50.45897 | 37127 ft | 434 kts | 242° |
| 2026-04-21 14:33 | 22.70395 | -50.51441 | 37126 ft | 434 kts | 242° |
| 2026-04-21 14:33 | 22.67206 | -50.56953 | 37126 ft | 435 kts | 242° |
| 2026-04-21 14:34 | 22.63993 | -50.62500 | 37123 ft | 435 kts | 242° |
| 2026-04-21 14:34 | 22.60777 | -50.68047 | 37117 ft | 435 kts | 242° |
| 2026-04-21 14:35 | 22.57552 | -50.73603 | 37128 ft | 435 kts | 242° |
| 2026-04-21 14:35 | 22.54349 | -50.79118 | 37125 ft | 435 kts | 242° |
| 2026-04-21 14:36 | 22.51120 | -50.84669 | 37123 ft | 436 kts | 242° |
| 2026-04-21 14:36 | 22.47891 | -50.90215 | 37110 ft | 436 kts | 242° |
| 2026-04-21 14:37 | 22.44659 | -50.95760 | 37116 ft | 436 kts | 242° |
| 2026-04-21 14:37 | 22.41423 | -51.01306 | 37120 ft | 436 kts | 242° |
| 2026-04-21 14:38 | 22.38186 | -51.06848 | 37124 ft | 436 kts | 242° |
| 2026-04-21 14:38 | 22.34940 | -51.12399 | 37122 ft | 436 kts | 242° |
| 2026-04-21 14:39 | 22.31694 | -51.17945 | 37123 ft | 437 kts | 242° |
| 2026-04-21 14:39 | 22.28466 | -51.23455 | 37122 ft | 437 kts | 242° |
| 2026-04-21 14:40 | 22.25215 | -51.28998 | 37122 ft | 437 kts | 242° |
| 2026-04-21 14:40 | 22.22492 | -51.33636 | 37129 ft | 437 kts | 242° |
| 2026-04-21 14:41 | 22.18706 | -51.40079 | 37119 ft | 437 kts | 241° |
| 2026-04-21 14:41 | 22.15992 | -51.44691 | 37122 ft | 438 kts | 241° |
| 2026-04-21 14:42 | 22.12725 | -51.50239 | 37106 ft | 437 kts | 241° |
| 2026-04-21 14:42 | 22.08929 | -51.56678 | 37118 ft | 437 kts | 241° |
| 2026-04-21 14:43 | 22.06191 | -51.61319 | 37119 ft | 438 kts | 241° |
| 2026-04-21 14:43 | 22.02938 | -51.66826 | 37120 ft | 438 kts | 241° |
| 2026-04-21 14:44 | 21.99657 | -51.72374 | 37116 ft | 438 kts | 241° |
| 2026-04-21 14:44 | 21.96379 | -51.77912 | 37111 ft | 439 kts | 241° |
| 2026-04-21 14:45 | 21.93094 | -51.83457 | 37115 ft | 438 kts | 241° |
| 2026-04-21 14:45 | 21.89810 | -51.88993 | 37115 ft | 439 kts | 241° |
| 2026-04-21 14:46 | 21.86522 | -51.94530 | 37114 ft | 439 kts | 241° |
| 2026-04-21 14:46 | 21.83249 | -52.00038 | 37118 ft | 439 kts | 241° |
| 2026-04-21 14:47 | 21.79957 | -52.05571 | 37122 ft | 439 kts | 241° |
| 2026-04-21 14:47 | 21.76660 | -52.11107 | 37100 ft | 439 kts | 241° |
| 2026-04-21 14:48 | 21.73366 | -52.16632 | 37109 ft | 439 kts | 241° |
| 2026-04-21 14:48 | 21.70071 | -52.22155 | 37117 ft | 439 kts | 241° |
| 2026-04-21 14:49 | 21.66769 | -52.27682 | 37113 ft | 439 kts | 241° |
| 2026-04-21 14:49 | 21.63489 | -52.33168 | 37116 ft | 439 kts | 241° |
| 2026-04-21 14:50 | 21.60186 | -52.38685 | 37088 ft | 439 kts | 241° |
| 2026-04-21 14:50 | 21.56878 | -52.44206 | 37102 ft | 439 kts | 241° |
| 2026-04-21 14:51 | 21.53572 | -52.49718 | 37110 ft | 438 kts | 241° |
| 2026-04-21 14:51 | 21.50284 | -52.55195 | 37114 ft | 438 kts | 241° |
| 2026-04-21 14:52 | 21.46976 | -52.60698 | 37114 ft | 439 kts | 240° |
| 2026-04-21 14:52 | 21.43665 | -52.66202 | 37114 ft | 439 kts | 240° |
| 2026-04-21 14:53 | 21.40352 | -52.71705 | 37108 ft | 438 kts | 240° |
| 2026-04-21 14:53 | 21.37030 | -52.77216 | 37102 ft | 439 kts | 240° |
| 2026-04-21 14:54 | 21.33712 | -52.82715 | 37106 ft | 439 kts | 240° |
| 2026-04-21 14:54 | 21.30410 | -52.88183 | 37103 ft | 440 kts | 240° |
| 2026-04-21 14:55 | 21.27080 | -52.93690 | 37104 ft | 440 kts | 240° |
| 2026-04-21 14:55 | 21.23746 | -52.99199 | 37092 ft | 440 kts | 240° |
| 2026-04-21 14:56 | 21.20412 | -53.04703 | 37099 ft | 440 kts | 240° |
| 2026-04-21 14:56 | 21.17074 | -53.10208 | 37105 ft | 440 kts | 240° |
| 2026-04-21 14:57 | 21.13758 | -53.15671 | 37105 ft | 440 kts | 240° |
| 2026-04-21 14:57 | 21.10413 | -53.21176 | 37100 ft | 440 kts | 240° |
| 2026-04-21 14:58 | 21.07069 | -53.26676 | 37106 ft | 440 kts | 240° |
| 2026-04-21 14:58 | 21.03724 | -53.32171 | 37090 ft | 440 kts | 240° |
| 2026-04-21 14:59 | 21.00376 | -53.37664 | 37103 ft | 440 kts | 240° |
| 2026-04-21 14:59 | 20.97028 | -53.43154 | 37104 ft | 440 kts | 240° |
| 2026-04-21 15:00 | 20.93700 | -53.48604 | 37103 ft | 440 kts | 240° |
| 2026-04-21 15:00 | 20.90351 | -53.54084 | 37104 ft | 440 kts | 240° |
| 2026-04-21 15:01 | 20.86999 | -53.59564 | 37103 ft | 440 kts | 240° |
| 2026-04-21 15:01 | 20.83647 | -53.65039 | 37091 ft | 439 kts | 240° |
| 2026-04-21 15:02 | 20.80290 | -53.70516 | 37098 ft | 439 kts | 240° |
| 2026-04-21 15:02 | 20.76942 | -53.75973 | 37101 ft | 439 kts | 240° |
| 2026-04-21 15:03 | 20.73614 | -53.81393 | 37099 ft | 439 kts | 240° |
| 2026-04-21 15:03 | 20.70258 | -53.86854 | 37101 ft | 440 kts | 240° |
| 2026-04-21 15:04 | 20.66894 | -53.92321 | 37102 ft | 440 kts | 240° |
| 2026-04-21 15:04 | 20.63528 | -53.97786 | 37092 ft | 440 kts | 240° |
| 2026-04-21 15:05 | 20.60161 | -54.03249 | 37097 ft | 440 kts | 240° |
| 2026-04-21 15:05 | 20.55101 | -54.11449 | 37099 ft | 441 kts | 240° |
| 2026-04-21 15:06 | 20.51736 | -54.16896 | 37098 ft | 442 kts | 240° |
| 2026-04-21 15:06 | 20.48349 | -54.22372 | 37099 ft | 442 kts | 240° |
| 2026-04-21 15:07 | 20.44956 | -54.27852 | 37091 ft | 443 kts | 240° |
| 2026-04-21 15:07 | 20.41558 | -54.33336 | 37094 ft | 443 kts | 240° |
| 2026-04-21 15:08 | 20.38157 | -54.38819 | 37095 ft | 443 kts | 240° |
| 2026-04-21 15:08 | 20.34754 | -54.44301 | 37096 ft | 443 kts | 240° |
| 2026-04-21 15:09 | 20.31344 | -54.49789 | 37092 ft | 443 kts | 240° |
| 2026-04-21 15:09 | 20.27936 | -54.55268 | 37091 ft | 443 kts | 240° |
| 2026-04-21 15:10 | 20.24529 | -54.60741 | 37090 ft | 443 kts | 240° |
| 2026-04-21 15:10 | 20.21136 | -54.66186 | 37090 ft | 443 kts | 240° |
| 2026-04-21 15:11 | 20.17717 | -54.71669 | 37093 ft | 444 kts | 240° |
| 2026-04-21 15:11 | 20.14302 | -54.77139 | 37089 ft | 444 kts | 240° |
| 2026-04-21 15:12 | 20.10883 | -54.82610 | 37088 ft | 444 kts | 240° |
| 2026-04-21 15:12 | 20.07478 | -54.88056 | 37091 ft | 444 kts | 240° |
| 2026-04-21 15:13 | 20.04047 | -54.93537 | 37084 ft | 444 kts | 240° |
| 2026-04-21 15:13 | 20.00623 | -54.99004 | 37086 ft | 444 kts | 240° |
| 2026-04-21 15:14 | 19.97147 | -55.04442 | 37085 ft | 445 kts | 239° |
| 2026-04-21 15:14 | 19.93613 | -55.09840 | 37083 ft | 445 kts | 239° |
| 2026-04-21 15:15 | 19.90073 | -55.15240 | 37089 ft | 445 kts | 239° |
| 2026-04-21 15:15 | 19.86557 | -55.20620 | 37067 ft | 445 kts | 239° |
| 2026-04-21 15:16 | 19.83027 | -55.26023 | 37079 ft | 444 kts | 239° |
| 2026-04-21 15:16 | 19.79499 | -55.31420 | 37087 ft | 444 kts | 239° |
| 2026-04-21 15:17 | 19.75977 | -55.36806 | 37085 ft | 444 kts | 239° |
| 2026-04-21 15:17 | 19.72466 | -55.42169 | 37085 ft | 444 kts | 239° |
| 2026-04-21 15:18 | 19.68933 | -55.47560 | 37087 ft | 445 kts | 239° |
| 2026-04-21 15:18 | 19.65400 | -55.52946 | 37068 ft | 445 kts | 239° |
| 2026-04-21 15:19 | 19.61865 | -55.58330 | 37089 ft | 445 kts | 239° |
| 2026-04-21 15:19 | 19.58328 | -55.63712 | 37090 ft | 445 kts | 239° |
| 2026-04-21 15:20 | 19.54789 | -55.69093 | 37089 ft | 445 kts | 239° |
| 2026-04-21 15:20 | 19.51266 | -55.74446 | 37081 ft | 445 kts | 239° |
| 2026-04-21 15:21 | 19.47724 | -55.79821 | 37090 ft | 445 kts | 239° |
| 2026-04-21 15:21 | 19.44180 | -55.85196 | 37070 ft | 445 kts | 239° |
| 2026-04-21 15:22 | 19.40637 | -55.90563 | 37078 ft | 444 kts | 239° |
| 2026-04-21 15:22 | 19.37093 | -55.95927 | 37083 ft | 444 kts | 239° |
| 2026-04-21 15:23 | 19.33549 | -56.01287 | 37079 ft | 444 kts | 239° |
| 2026-04-21 15:23 | 19.30006 | -56.06641 | 37080 ft | 444 kts | 239° |
| 2026-04-21 15:24 | 19.26481 | -56.11962 | 37081 ft | 444 kts | 239° |
| 2026-04-21 15:24 | 19.22932 | -56.17317 | 37053 ft | 444 kts | 239° |
| 2026-04-21 15:25 | 19.19388 | -56.22656 | 37073 ft | 442 kts | 239° |
| 2026-04-21 15:25 | 19.15858 | -56.27972 | 37075 ft | 441 kts | 239° |
| 2026-04-21 15:26 | 19.12354 | -56.33244 | 37079 ft | 441 kts | 239° |
| 2026-04-21 15:26 | 19.08821 | -56.38557 | 37081 ft | 441 kts | 239° |
| 2026-04-21 15:27 | 19.05284 | -56.43870 | 37079 ft | 442 kts | 239° |
| 2026-04-21 15:27 | 19.01737 | -56.49192 | 37080 ft | 443 kts | 239° |
| 2026-04-21 15:28 | 18.98193 | -56.54506 | 37071 ft | 442 kts | 239° |
| 2026-04-21 15:28 | 18.94671 | -56.59782 | 37069 ft | 442 kts | 239° |
| 2026-04-21 15:29 | 18.91122 | -56.65094 | 37070 ft | 442 kts | 239° |
| 2026-04-21 15:29 | 18.87571 | -56.70405 | 37076 ft | 443 kts | 239° |
| 2026-04-21 15:30 | 18.84615 | -56.74823 | 37076 ft | 443 kts | 239° |
| 2026-04-21 15:30 | 18.81054 | -56.80141 | 37076 ft | 444 kts | 239° |
| 2026-04-21 15:31 | 18.77487 | -56.85462 | 37070 ft | 443 kts | 238° |
| 2026-04-21 15:31 | 18.73925 | -56.90772 | 37069 ft | 442 kts | 238° |
| 2026-04-21 15:32 | 18.70387 | -56.96041 | 37072 ft | 442 kts | 238° |
| 2026-04-21 15:32 | 18.66831 | -57.01333 | 37073 ft | 441 kts | 238° |
| 2026-04-21 15:33 | 18.63281 | -57.06612 | 37069 ft | 441 kts | 238° |
| 2026-04-21 15:33 | 18.59732 | -57.11886 | 37072 ft | 441 kts | 238° |
| 2026-04-21 15:34 | 18.56176 | -57.17165 | 37060 ft | 441 kts | 238° |
| 2026-04-21 15:34 | 18.52625 | -57.22432 | 37060 ft | 441 kts | 238° |
| 2026-04-21 15:35 | 18.49072 | -57.27699 | 37062 ft | 440 kts | 238° |
| 2026-04-21 15:35 | 18.45520 | -57.32958 | 37072 ft | 440 kts | 238° |
| 2026-04-21 15:36 | 18.41970 | -57.38211 | 37074 ft | 440 kts | 238° |
| 2026-04-21 15:36 | 18.38442 | -57.43427 | 37073 ft | 440 kts | 238° |
| 2026-04-21 15:37 | 18.34884 | -57.48684 | 37071 ft | 441 kts | 238° |
| 2026-04-21 15:37 | 18.31322 | -57.53941 | 37080 ft | 441 kts | 238° |
| 2026-04-21 15:38 | 18.27760 | -57.59195 | 37067 ft | 441 kts | 238° |
| 2026-04-21 15:38 | 18.24192 | -57.64453 | 37068 ft | 442 kts | 238° |
| 2026-04-21 15:39 | 18.20620 | -57.69714 | 37076 ft | 442 kts | 238° |
| 2026-04-21 15:39 | 18.17041 | -57.74980 | 37065 ft | 443 kts | 238° |
| 2026-04-21 15:40 | 18.13474 | -57.80223 | 37071 ft | 443 kts | 238° |
| 2026-04-21 15:40 | 18.09883 | -57.85499 | 37062 ft | 443 kts | 238° |
| 2026-04-21 15:41 | 18.06297 | -57.90764 | 37064 ft | 442 kts | 238° |
| 2026-04-21 15:41 | 18.02714 | -57.96020 | 37062 ft | 442 kts | 238° |
| 2026-04-21 15:42 | 17.98970 | -58.01150 | 37071 ft | 445 kts | 232° |
| 2026-04-21 15:42 | 17.94622 | -58.05811 | 37070 ft | 447 kts | 230° |
| 2026-04-21 15:43 | 17.90243 | -58.10449 | 37065 ft | 447 kts | 230° |
| 2026-04-21 15:43 | 17.85877 | -58.15095 | 37057 ft | 446 kts | 230° |
| 2026-04-21 15:44 | 17.81548 | -58.19714 | 37062 ft | 446 kts | 230° |
| 2026-04-21 15:44 | 17.77194 | -58.24361 | 37064 ft | 446 kts | 230° |
| 2026-04-21 15:45 | 17.72843 | -58.29002 | 37071 ft | 447 kts | 230° |
| 2026-04-21 15:45 | 17.68477 | -58.33654 | 37069 ft | 447 kts | 230° |
| 2026-04-21 15:46 | 17.64109 | -58.38305 | 37063 ft | 447 kts | 230° |
| 2026-04-21 15:46 | 17.59777 | -58.42913 | 37059 ft | 446 kts | 230° |
| 2026-04-21 15:47 | 17.55417 | -58.47548 | 37064 ft | 446 kts | 230° |
| 2026-04-21 15:47 | 17.51059 | -58.52177 | 37060 ft | 446 kts | 230° |
| 2026-04-21 15:48 | 17.46701 | -58.56805 | 37068 ft | 446 kts | 230° |
| 2026-04-21 15:48 | 17.42335 | -58.61437 | 37068 ft | 446 kts | 230° |
| 2026-04-21 15:49 | 17.37968 | -58.66066 | 37047 ft | 446 kts | 230° |
| 2026-04-21 15:49 | 17.33635 | -58.70655 | 37058 ft | 446 kts | 230° |
| 2026-04-21 15:50 | 17.29273 | -58.75272 | 37058 ft | 445 kts | 230° |
| 2026-04-21 15:50 | 17.24918 | -58.79879 | 37059 ft | 445 kts | 230° |
| 2026-04-21 15:51 | 17.20566 | -58.84479 | 37056 ft | 444 kts | 230° |
| 2026-04-21 15:51 | 17.16214 | -58.89076 | 37062 ft | 444 kts | 230° |
| 2026-04-21 15:52 | 17.11863 | -58.93669 | 37051 ft | 444 kts | 230° |
| 2026-04-21 15:52 | 17.07518 | -58.98252 | 37060 ft | 444 kts | 230° |
| 2026-04-21 15:53 | 17.03169 | -59.02836 | 37065 ft | 444 kts | 230° |
| 2026-04-21 15:53 | 16.98844 | -59.07391 | 37059 ft | 445 kts | 230° |
| 2026-04-21 15:54 | 16.94482 | -59.11984 | 37053 ft | 445 kts | 230° |
| 2026-04-21 15:54 | 16.90119 | -59.16573 | 37055 ft | 445 kts | 230° |
| 2026-04-21 15:55 | 16.85751 | -59.21165 | 37045 ft | 445 kts | 230° |
| 2026-04-21 15:55 | 16.81377 | -59.25759 | 37054 ft | 446 kts | 230° |
| 2026-04-21 15:56 | 16.77027 | -59.30324 | 37054 ft | 446 kts | 230° |
| 2026-04-21 15:56 | 16.72649 | -59.34916 | 37052 ft | 447 kts | 230° |
| 2026-04-21 15:57 | 16.68259 | -59.39518 | 37054 ft | 447 kts | 230° |
| 2026-04-21 15:57 | 16.63869 | -59.44116 | 37055 ft | 447 kts | 230° |
| 2026-04-21 15:58 | 16.59471 | -59.48720 | 37038 ft | 447 kts | 230° |
| 2026-04-21 15:58 | 16.55098 | -59.53295 | 37051 ft | 448 kts | 230° |
| 2026-04-21 15:59 | 16.50689 | -59.57903 | 37049 ft | 448 kts | 230° |
| 2026-04-21 15:59 | 16.46286 | -59.62503 | 37048 ft | 448 kts | 230° |
| 2026-04-21 16:00 | 16.41881 | -59.67101 | 37053 ft | 448 kts | 230° |
| 2026-04-21 16:00 | 16.37474 | -59.71699 | 37052 ft | 448 kts | 230° |
| 2026-04-21 16:01 | 16.33087 | -59.76272 | 37045 ft | 448 kts | 229° |
| 2026-04-21 16:01 | 16.28670 | -59.80873 | 37050 ft | 449 kts | 229° |
| 2026-04-21 16:02 | 16.24251 | -59.85475 | 37046 ft | 449 kts | 229° |
| 2026-04-21 16:02 | 16.19856 | -59.90048 | 37050 ft | 450 kts | 229° |
| 2026-04-21 16:03 | 16.15426 | -59.94654 | 37049 ft | 450 kts | 229° |
| 2026-04-21 16:03 | 16.10993 | -59.99260 | 37049 ft | 450 kts | 229° |
| 2026-04-21 16:04 | 16.06562 | -60.03861 | 37039 ft | 450 kts | 229° |
| 2026-04-21 16:04 | 16.02147 | -60.08442 | 37050 ft | 451 kts | 229° |
| 2026-04-21 16:05 | 15.97701 | -60.13053 | 37047 ft | 452 kts | 229° |
| 2026-04-21 16:05 | 15.93246 | -60.17672 | 37048 ft | 452 kts | 229° |
| 2026-04-21 16:06 | 15.88787 | -60.22288 | 37045 ft | 453 kts | 229° |
| 2026-04-21 16:06 | 15.84322 | -60.26901 | 37049 ft | 452 kts | 229° |
| 2026-04-21 16:07 | 15.82090 | -60.29208 | 36846 ft | 455 kts | 229° |
| 2026-04-21 16:07 | 15.79814 | -60.31563 | 36017 ft | 464 kts | 229° |
| 2026-04-21 16:07 | 15.77527 | -60.33926 | 35161 ft | 464 kts | 229° |
| 2026-04-21 16:07 | 15.75232 | -60.36296 | 34235 ft | 467 kts | 229° |
| 2026-04-21 16:08 | 15.70593 | -60.41083 | 32144 ft | 472 kts | 229° |
| 2026-04-21 16:08 | 15.68287 | -60.43462 | 31115 ft | 475 kts | 229° |
| 2026-04-21 16:08 | 15.65942 | -60.45880 | 30366 ft | 474 kts | 229° |
| 2026-04-21 16:09 | 15.63606 | -60.48285 | 29540 ft | 472 kts | 229° |
| 2026-04-21 16:09 | 15.61286 | -60.50674 | 28776 ft | 468 kts | 229° |
| 2026-04-21 16:09 | 15.58984 | -60.53045 | 28054 ft | 465 kts | 229° |
| 2026-04-21 16:09 | 15.56695 | -60.55401 | 27358 ft | 461 kts | 228° |
| 2026-04-21 16:10 | 15.54429 | -60.57734 | 26706 ft | 457 kts | 228° |
| 2026-04-21 16:10 | 15.52176 | -60.60053 | 26050 ft | 454 kts | 228° |
| 2026-04-21 16:10 | 15.49934 | -60.62360 | 25377 ft | 452 kts | 227° |
| 2026-04-21 16:10 | 15.47709 | -60.64649 | 24720 ft | 450 kts | 227° |
| 2026-04-21 16:11 | 15.45492 | -60.66930 | 24065 ft | 448 kts | 227° |
| 2026-04-21 16:11 | 15.43284 | -60.69201 | 23367 ft | 447 kts | 227° |
| 2026-04-21 16:11 | 15.41082 | -60.71463 | 22639 ft | 444 kts | 227° |
| 2026-04-21 16:11 | 15.38896 | -60.73708 | 21964 ft | 441 kts | 226° |
| 2026-04-21 16:12 | 15.37456 | -60.75186 | 21534 ft | 439 kts | 226° |
| 2026-04-21 16:12 | 15.34568 | -60.78152 | 20676 ft | 435 kts | 226° |
| 2026-04-21 16:12 | 15.32418 | -60.80358 | 20039 ft | 433 kts | 226° |
| 2026-04-21 16:12 | 15.30278 | -60.82554 | 19400 ft | 432 kts | 226° |
| 2026-04-21 16:13 | 15.28180 | -60.84714 | 18765 ft | 431 kts | 226° |
| 2026-04-21 16:13 | 15.26051 | -60.86898 | 18105 ft | 430 kts | 226° |
| 2026-04-21 16:13 | 15.23922 | -60.89072 | 17407 ft | 429 kts | 225° |
| 2026-04-21 16:13 | 15.21808 | -60.91238 | 16763 ft | 426 kts | 226° |
| 2026-04-21 16:14 | 15.19719 | -60.93396 | 16204 ft | 421 kts | 225° |
| 2026-04-21 16:14 | 15.17647 | -60.95521 | 15625 ft | 416 kts | 226° |
| 2026-04-21 16:14 | 15.15597 | -60.97608 | 15148 ft | 409 kts | 225° |
| 2026-04-21 16:14 | 15.13587 | -60.99657 | 14710 ft | 402 kts | 225° |
| 2026-04-21 16:15 | 15.11615 | -61.01670 | 14266 ft | 395 kts | 226° |
| 2026-04-21 16:15 | 15.09709 | -61.03686 | 13835 ft | 387 kts | 226° |
| 2026-04-21 16:15 | 15.07833 | -61.05641 | 13299 ft | 378 kts | 226° |
| 2026-04-21 16:15 | 15.05967 | -61.07541 | 12755 ft | 373 kts | 225° |
| 2026-04-21 16:16 | 15.04109 | -61.09400 | 12202 ft | 369 kts | 225° |
| 2026-04-21 16:16 | 15.02270 | -61.11248 | 11660 ft | 366 kts | 225° |
| 2026-04-21 16:16 | 15.00488 | -61.13045 | 11584 ft | 350 kts | 225° |
| 2026-04-21 16:16 | 14.98780 | -61.14774 | 11488 ft | 337 kts | 225° |
| 2026-04-21 16:17 | 14.97144 | -61.16444 | 11397 ft | 324 kts | 225° |
| 2026-04-21 16:17 | 14.96095 | -61.17518 | 11325 ft | 316 kts | 226° |
| 2026-04-21 16:17 | 14.94560 | -61.19092 | 11238 ft | 305 kts | 225° |
| 2026-04-21 16:17 | 14.93080 | -61.20608 | 11119 ft | 295 kts | 225° |
| 2026-04-21 16:18 | 14.91182 | -61.22550 | 10928 ft | 284 kts | 225° |
| 2026-04-21 16:18 | 14.90240 | -61.23513 | 10780 ft | 280 kts | 226° |
| 2026-04-21 16:18 | 14.88862 | -61.24920 | 10546 ft | 276 kts | 226° |
| 2026-04-21 16:18 | 14.87498 | -61.26311 | 10248 ft | 274 kts | 225° |
| 2026-04-21 16:19 | 14.86138 | -61.27698 | 9924 ft | 275 kts | 225° |
| 2026-04-21 16:19 | 14.84781 | -61.29069 | 9606 ft | 270 kts | 222° |
| 2026-04-21 16:19 | 14.83175 | -61.30014 | 9114 ft | 275 kts | 195° |
| 2026-04-21 16:19 | 14.81273 | -61.30148 | 8718 ft | 275 kts | 177° |
| 2026-04-21 16:20 | 14.79354 | -61.29963 | 8345 ft | 276 kts | 176° |
| 2026-04-21 16:20 | 14.77452 | -61.29778 | 8025 ft | 272 kts | 175° |
| 2026-04-21 16:20 | 14.75591 | -61.29606 | 7457 ft | 268 kts | 174° |
| 2026-04-21 16:20 | 14.73694 | -61.29420 | 7026 ft | 276 kts | 174° |
| 2026-04-21 16:21 | 14.71787 | -61.29237 | 6886 ft | 274 kts | 173° |
| 2026-04-21 16:21 | 14.69899 | -61.29062 | 6743 ft | 271 kts | 173° |
| 2026-04-21 16:21 | 14.68029 | -61.28893 | 6550 ft | 269 kts | 174° |
| 2026-04-21 16:21 | 14.66183 | -61.28723 | 6334 ft | 270 kts | 173° |
| 2026-04-21 16:22 | 14.64320 | -61.28566 | 6113 ft | 266 kts | 175° |
| 2026-04-21 16:22 | 14.62464 | -61.28412 | 5812 ft | 268 kts | 173° |
| 2026-04-21 16:22 | 14.60602 | -61.28222 | 5604 ft | 268 kts | 173° |
| 2026-04-21 16:22 | 14.58759 | -61.28047 | 5459 ft | 264 kts | 172° |
| 2026-04-21 16:23 | 14.57022 | -61.27553 | 5092 ft | 261 kts | 147° |
| 2026-04-21 16:23 | 14.55803 | -61.26211 | 4850 ft | 257 kts | 112° |
| 2026-04-21 16:23 | 14.55466 | -61.24477 | 4815 ft | 246 kts | 90° |
| 2026-04-21 16:23 | 14.55506 | -61.22755 | 4740 ft | 235 kts | 87° |
| 2026-04-21 16:24 | 14.55621 | -61.21082 | 4445 ft | 233 kts | 83° |
| 2026-04-21 16:24 | 14.55854 | -61.19432 | 4026 ft | 233 kts | 80° |
| 2026-04-21 16:24 | 14.56139 | -61.17768 | 3410 ft | 237 kts | 79° |
| 2026-04-21 16:24 | 14.56430 | -61.16099 | 2713 ft | 232 kts | 80° |
| 2026-04-21 16:25 | 14.56697 | -61.14521 | 2380 ft | 213 kts | 80° |
| 2026-04-21 16:25 | 14.56931 | -61.13058 | 2072 ft | 198 kts | 82° |
| 2026-04-21 16:25 | 14.57186 | -61.11722 | 1842 ft | 181 kts | 77° |
| 2026-04-21 16:25 | 14.57390 | -61.10490 | 1617 ft | 170 kts | 83° |
| 2026-04-21 16:26 | 14.57588 | -61.09341 | 1411 ft | 155 kts | 79° |
| 2026-04-21 16:26 | 14.57757 | -61.08311 | 1228 ft | 139 kts | 81° |
| 2026-04-21 16:26 | 14.57920 | -61.07321 | 1047 ft | 140 kts | 82° |
| 2026-04-21 16:26 | 14.58050 | -61.06325 | 891 ft | 140 kts | 78° |
| 2026-04-21 16:27 | 14.58274 | -61.05353 | 718 ft | 141 kts | 77° |
| 2026-04-21 16:27 | 14.58423 | -61.04383 | 545 ft | 134 kts | 82° |
| 2026-04-21 16:27 | 14.58565 | -61.03433 | 371 ft | 134 kts | 78° |
| 2026-04-21 16:27 | 14.58739 | -61.02463 | 219 ft | 140 kts | 78° |
| 2026-04-21 16:28 | 14.58901 | -61.01515 | 31 ft | 126 kts | 79° |
| 2026-04-21 16:28 | 14.59035 | -61.00730 | 29 ft | 91 kts | 79° |
| 2026-04-21 16:28 | 14.59114 | -61.00271 | 21 ft | 52 kts | 80° |
| 2026-04-21 16:28 | 14.59172 | -60.99933 | 27 ft | 35 kts | 80° |
| 2026-04-21 16:29 | 14.59203 | -60.99742 | 27 ft | 18 kts | 81° |
| 2026-04-21 16:29 | 14.59259 | -60.99666 | 27 ft | 14 kts | 18° |
| 2026-04-21 16:29 | 14.59356 | -60.99677 | 31 ft | 15 kts | 342° |
| 2026-04-21 16:29 | 14.59396 | -60.99765 | 25 ft | 15 kts | 264° |
| 2026-04-21 16:30 | 14.59379 | -60.99877 | 27 ft | 16 kts | 260° |
| 2026-04-21 16:30 | 14.59361 | -60.99983 | 26 ft | 14 kts | 263° |
| 2026-04-21 16:30 | 14.59373 | -61.00076 | 25 ft | 12 kts | 285° |
| 2026-04-21 16:30 | 14.59409 | -61.00157 | 27 ft | 13 kts | 301° |
| 2026-04-21 16:31 | 14.59447 | -61.00206 | 26 ft | 7 kts | 329° |
| 2026-04-21 16:31 | 14.59493 | -61.00183 | 25 ft | 7 kts | 43° |
| 2026-04-21 16:31 | 14.59514 | -61.00160 | 25 ft | 2 kts | 47° |